<?xml version="1.0" encoding="UTF-8" standalone="no" ?>
<gpx xmlns="http://www.topografix.com/GPX/1/1" xmlns:xsi="http://www.w3.org/2001/XMLSchema-instance" xsi:schemaLocation="http://www.topografix.com/GPX/1/1 http://www.topografix.com/GPX/1/1/gpx.xsd" version="1.1" creator="VisuGPX - https://www.visugpx.com">
  <metadata>
    <name>Boudin frites 2025</name>
  </metadata>
  <trk>
    <name><![CDATA[boudin frites 2025-22895515]]></name>
    <extensions>
      <line xmlns="http://www.topografix.com/GPX/gpx_style/0/2">
        <color>0000FF</color>
        <width>4</width>
      </line>
    </extensions>
    <trkseg>
      <trkpt lat="45.68052" lon="4.31138">
        <ele>466</ele>
        <time>2025-11-17T18:54:51Z</time>
      </trkpt>
      <trkpt lat="45.68025" lon="4.31137">
        <ele>467</ele>
        <time>2025-11-17T18:55:13Z</time>
      </trkpt>
      <trkpt lat="45.68011" lon="4.31134">
        <ele>467</ele>
        <time>2025-11-17T18:55:24Z</time>
      </trkpt>
      <trkpt lat="45.68017" lon="4.31143">
        <ele>467</ele>
        <time>2025-11-17T18:55:31Z</time>
      </trkpt>
      <trkpt lat="45.6806" lon="4.31195">
        <ele>466</ele>
        <time>2025-11-17T18:56:16Z</time>
      </trkpt>
      <trkpt lat="45.68076" lon="4.31215">
        <ele>467</ele>
        <time>2025-11-17T18:56:33Z</time>
      </trkpt>
      <trkpt lat="45.68085" lon="4.31235">
        <ele>467</ele>
        <time>2025-11-17T18:56:46Z</time>
      </trkpt>
      <trkpt lat="45.68115" lon="4.3131">
        <ele>469</ele>
        <time>2025-11-17T18:57:35Z</time>
      </trkpt>
      <trkpt lat="45.68127" lon="4.31336">
        <ele>471</ele>
        <time>2025-11-17T18:57:52Z</time>
      </trkpt>
      <trkpt lat="45.68154" lon="4.31382">
        <ele>473</ele>
        <time>2025-11-17T18:58:26Z</time>
      </trkpt>
      <trkpt lat="45.68168" lon="4.31403">
        <ele>474</ele>
        <time>2025-11-17T18:58:42Z</time>
      </trkpt>
      <trkpt lat="45.68178" lon="4.3141">
        <ele>475</ele>
        <time>2025-11-17T18:58:51Z</time>
      </trkpt>
      <trkpt lat="45.68168" lon="4.31403">
        <ele>474</ele>
        <time>2025-11-17T18:59:00Z</time>
      </trkpt>
      <trkpt lat="45.6817" lon="4.31421">
        <ele>475</ele>
        <time>2025-11-17T18:59:10Z</time>
      </trkpt>
      <trkpt lat="45.68182" lon="4.31481">
        <ele>476</ele>
        <time>2025-11-17T18:59:45Z</time>
      </trkpt>
      <trkpt lat="45.68192" lon="4.31551">
        <ele>479</ele>
        <time>2025-11-17T19:00:25Z</time>
      </trkpt>
      <trkpt lat="45.682" lon="4.31624">
        <ele>484</ele>
        <time>2025-11-17T19:01:06Z</time>
      </trkpt>
      <trkpt lat="45.68205" lon="4.31651">
        <ele>486</ele>
        <time>2025-11-17T19:01:22Z</time>
      </trkpt>
      <trkpt lat="45.68223" lon="4.31712">
        <ele>492</ele>
        <time>2025-11-17T19:01:59Z</time>
      </trkpt>
      <trkpt lat="45.68235" lon="4.31755">
        <ele>497</ele>
        <time>2025-11-17T19:02:25Z</time>
      </trkpt>
      <trkpt lat="45.68248" lon="4.31797">
        <ele>501</ele>
        <time>2025-11-17T19:02:50Z</time>
      </trkpt>
      <trkpt lat="45.68247" lon="4.31809">
        <ele>502</ele>
        <time>2025-11-17T19:02:57Z</time>
      </trkpt>
      <trkpt lat="45.68249" lon="4.3182">
        <ele>503</ele>
        <time>2025-11-17T19:03:04Z</time>
      </trkpt>
      <trkpt lat="45.68254" lon="4.31837">
        <ele>504</ele>
        <time>2025-11-17T19:03:14Z</time>
      </trkpt>
      <trkpt lat="45.68256" lon="4.31841">
        <ele>505</ele>
        <time>2025-11-17T19:03:17Z</time>
      </trkpt>
      <trkpt lat="45.68275" lon="4.31861">
        <ele>506</ele>
        <time>2025-11-17T19:03:35Z</time>
      </trkpt>
      <trkpt lat="45.68282" lon="4.31866">
        <ele>507</ele>
        <time>2025-11-17T19:03:42Z</time>
      </trkpt>
      <trkpt lat="45.68299" lon="4.31884">
        <ele>508</ele>
        <time>2025-11-17T19:03:59Z</time>
      </trkpt>
      <trkpt lat="45.68325" lon="4.31944">
        <ele>508</ele>
        <time>2025-11-17T19:04:38Z</time>
      </trkpt>
      <trkpt lat="45.68333" lon="4.31958">
        <ele>508</ele>
        <time>2025-11-17T19:04:48Z</time>
      </trkpt>
      <trkpt lat="45.68344" lon="4.31969">
        <ele>507</ele>
        <time>2025-11-17T19:04:59Z</time>
      </trkpt>
      <trkpt lat="45.68355" lon="4.31975">
        <ele>507</ele>
        <time>2025-11-17T19:05:08Z</time>
      </trkpt>
      <trkpt lat="45.6842" lon="4.3199">
        <ele>504</ele>
        <time>2025-11-17T19:06:01Z</time>
      </trkpt>
      <trkpt lat="45.68432" lon="4.31992">
        <ele>502</ele>
        <time>2025-11-17T19:06:11Z</time>
      </trkpt>
      <trkpt lat="45.68445" lon="4.31991">
        <ele>501</ele>
        <time>2025-11-17T19:06:21Z</time>
      </trkpt>
      <trkpt lat="45.68454" lon="4.31989">
        <ele>500</ele>
        <time>2025-11-17T19:06:29Z</time>
      </trkpt>
      <trkpt lat="45.68471" lon="4.31985">
        <ele>499</ele>
        <time>2025-11-17T19:06:42Z</time>
      </trkpt>
      <trkpt lat="45.68478" lon="4.31982">
        <ele>499</ele>
        <time>2025-11-17T19:06:48Z</time>
      </trkpt>
      <trkpt lat="45.68486" lon="4.31977">
        <ele>498</ele>
        <time>2025-11-17T19:06:55Z</time>
      </trkpt>
      <trkpt lat="45.68478" lon="4.31982">
        <ele>499</ele>
        <time>2025-11-17T19:07:02Z</time>
      </trkpt>
      <trkpt lat="45.68503" lon="4.31922">
        <ele>506</ele>
        <time>2025-11-17T19:07:41Z</time>
      </trkpt>
      <trkpt lat="45.68517" lon="4.31883">
        <ele>511</ele>
        <time>2025-11-17T19:08:06Z</time>
      </trkpt>
      <trkpt lat="45.68525" lon="4.31866">
        <ele>513</ele>
        <time>2025-11-17T19:08:17Z</time>
      </trkpt>
      <trkpt lat="45.68543" lon="4.31844">
        <ele>515</ele>
        <time>2025-11-17T19:08:36Z</time>
      </trkpt>
      <trkpt lat="45.68568" lon="4.31821">
        <ele>514</ele>
        <time>2025-11-17T19:09:00Z</time>
      </trkpt>
      <trkpt lat="45.68585" lon="4.31799">
        <ele>514</ele>
        <time>2025-11-17T19:09:18Z</time>
      </trkpt>
      <trkpt lat="45.68589" lon="4.31797">
        <ele>514</ele>
        <time>2025-11-17T19:09:22Z</time>
      </trkpt>
      <trkpt lat="45.68593" lon="4.31801">
        <ele>514</ele>
        <time>2025-11-17T19:09:26Z</time>
      </trkpt>
      <trkpt lat="45.68599" lon="4.31809">
        <ele>513</ele>
        <time>2025-11-17T19:09:32Z</time>
      </trkpt>
      <trkpt lat="45.68603" lon="4.31812">
        <ele>513</ele>
        <time>2025-11-17T19:09:36Z</time>
      </trkpt>
      <trkpt lat="45.68606" lon="4.31811">
        <ele>513</ele>
        <time>2025-11-17T19:09:38Z</time>
      </trkpt>
      <trkpt lat="45.6864" lon="4.31742">
        <ele>514</ele>
        <time>2025-11-17T19:10:26Z</time>
      </trkpt>
      <trkpt lat="45.68643" lon="4.3174">
        <ele>514</ele>
        <time>2025-11-17T19:10:28Z</time>
      </trkpt>
      <trkpt lat="45.6869" lon="4.31772">
        <ele>512</ele>
        <time>2025-11-17T19:11:10Z</time>
      </trkpt>
      <trkpt lat="45.68697" lon="4.31779">
        <ele>512</ele>
        <time>2025-11-17T19:11:17Z</time>
      </trkpt>
      <trkpt lat="45.68697" lon="4.31795">
        <ele>512</ele>
        <time>2025-11-17T19:11:26Z</time>
      </trkpt>
      <trkpt lat="45.68763" lon="4.31869">
        <ele>513</ele>
        <time>2025-11-17T19:12:33Z</time>
      </trkpt>
      <trkpt lat="45.68767" lon="4.3187">
        <ele>514</ele>
        <time>2025-11-17T19:12:36Z</time>
      </trkpt>
      <trkpt lat="45.68774" lon="4.31868">
        <ele>514</ele>
        <time>2025-11-17T19:12:42Z</time>
      </trkpt>
      <trkpt lat="45.68799" lon="4.31836">
        <ele>513</ele>
        <time>2025-11-17T19:13:09Z</time>
      </trkpt>
      <trkpt lat="45.6883" lon="4.31803">
        <ele>510</ele>
        <time>2025-11-17T19:13:40Z</time>
      </trkpt>
      <trkpt lat="45.68873" lon="4.31778">
        <ele>507</ele>
        <time>2025-11-17T19:14:17Z</time>
      </trkpt>
      <trkpt lat="45.68904" lon="4.31754">
        <ele>505</ele>
        <time>2025-11-17T19:14:45Z</time>
      </trkpt>
      <trkpt lat="45.68938" lon="4.31733">
        <ele>504</ele>
        <time>2025-11-17T19:15:15Z</time>
      </trkpt>
      <trkpt lat="45.68945" lon="4.31734">
        <ele>504</ele>
        <time>2025-11-17T19:15:20Z</time>
      </trkpt>
      <trkpt lat="45.68965" lon="4.31737">
        <ele>504</ele>
        <time>2025-11-17T19:15:36Z</time>
      </trkpt>
      <trkpt lat="45.68963" lon="4.31733">
        <ele>504</ele>
        <time>2025-11-17T19:15:39Z</time>
      </trkpt>
      <trkpt lat="45.68976" lon="4.3172">
        <ele>504</ele>
        <time>2025-11-17T19:15:52Z</time>
      </trkpt>
      <trkpt lat="45.68996" lon="4.31703">
        <ele>503</ele>
        <time>2025-11-17T19:16:10Z</time>
      </trkpt>
      <trkpt lat="45.69021" lon="4.31691">
        <ele>503</ele>
        <time>2025-11-17T19:16:31Z</time>
      </trkpt>
      <trkpt lat="45.69058" lon="4.31682">
        <ele>501</ele>
        <time>2025-11-17T19:17:02Z</time>
      </trkpt>
      <trkpt lat="45.69062" lon="4.31678">
        <ele>501</ele>
        <time>2025-11-17T19:17:05Z</time>
      </trkpt>
      <trkpt lat="45.69062" lon="4.31672">
        <ele>501</ele>
        <time>2025-11-17T19:17:09Z</time>
      </trkpt>
      <trkpt lat="45.6906" lon="4.31665">
        <ele>501</ele>
        <time>2025-11-17T19:17:13Z</time>
      </trkpt>
      <trkpt lat="45.6906" lon="4.31658">
        <ele>501</ele>
        <time>2025-11-17T19:17:17Z</time>
      </trkpt>
      <trkpt lat="45.69065" lon="4.3165">
        <ele>502</ele>
        <time>2025-11-17T19:17:23Z</time>
      </trkpt>
      <trkpt lat="45.69177" lon="4.31557">
        <ele>496</ele>
        <time>2025-11-17T19:19:07Z</time>
      </trkpt>
      <trkpt lat="45.69178" lon="4.31552">
        <ele>496</ele>
        <time>2025-11-17T19:19:10Z</time>
      </trkpt>
      <trkpt lat="45.69174" lon="4.31523">
        <ele>498</ele>
        <time>2025-11-17T19:19:26Z</time>
      </trkpt>
      <trkpt lat="45.69154" lon="4.31458">
        <ele>506</ele>
        <time>2025-11-17T19:20:06Z</time>
      </trkpt>
      <trkpt lat="45.69103" lon="4.31307">
        <ele>528</ele>
        <time>2025-11-17T19:21:40Z</time>
      </trkpt>
      <trkpt lat="45.69095" lon="4.31282">
        <ele>529</ele>
        <time>2025-11-17T19:21:55Z</time>
      </trkpt>
      <trkpt lat="45.69092" lon="4.31265">
        <ele>529</ele>
        <time>2025-11-17T19:22:05Z</time>
      </trkpt>
      <trkpt lat="45.69092" lon="4.3125">
        <ele>529</ele>
        <time>2025-11-17T19:22:13Z</time>
      </trkpt>
      <trkpt lat="45.69096" lon="4.31234">
        <ele>528</ele>
        <time>2025-11-17T19:22:23Z</time>
      </trkpt>
      <trkpt lat="45.69111" lon="4.31186">
        <ele>524</ele>
        <time>2025-11-17T19:22:52Z</time>
      </trkpt>
      <trkpt lat="45.69135" lon="4.31129">
        <ele>519</ele>
        <time>2025-11-17T19:23:29Z</time>
      </trkpt>
      <trkpt lat="45.69144" lon="4.31102">
        <ele>517</ele>
        <time>2025-11-17T19:23:46Z</time>
      </trkpt>
      <trkpt lat="45.6918" lon="4.31026">
        <ele>513</ele>
        <time>2025-11-17T19:24:37Z</time>
      </trkpt>
      <trkpt lat="45.69202" lon="4.30963">
        <ele>506</ele>
        <time>2025-11-17T19:25:17Z</time>
      </trkpt>
      <trkpt lat="45.69208" lon="4.30936">
        <ele>503</ele>
        <time>2025-11-17T19:25:33Z</time>
      </trkpt>
      <trkpt lat="45.69212" lon="4.30885">
        <ele>498</ele>
        <time>2025-11-17T19:26:01Z</time>
      </trkpt>
      <trkpt lat="45.69217" lon="4.30889">
        <ele>498</ele>
        <time>2025-11-17T19:26:06Z</time>
      </trkpt>
      <trkpt lat="45.69264" lon="4.30937">
        <ele>501</ele>
        <time>2025-11-17T19:26:52Z</time>
      </trkpt>
      <trkpt lat="45.69283" lon="4.30951">
        <ele>500</ele>
        <time>2025-11-17T19:27:09Z</time>
      </trkpt>
      <trkpt lat="45.69308" lon="4.30965">
        <ele>499</ele>
        <time>2025-11-17T19:27:31Z</time>
      </trkpt>
      <trkpt lat="45.69324" lon="4.30981">
        <ele>499</ele>
        <time>2025-11-17T19:27:46Z</time>
      </trkpt>
      <trkpt lat="45.69338" lon="4.31003">
        <ele>499</ele>
        <time>2025-11-17T19:28:03Z</time>
      </trkpt>
      <trkpt lat="45.69353" lon="4.31023">
        <ele>497</ele>
        <time>2025-11-17T19:28:19Z</time>
      </trkpt>
      <trkpt lat="45.69362" lon="4.31047">
        <ele>495</ele>
        <time>2025-11-17T19:28:35Z</time>
      </trkpt>
      <trkpt lat="45.69366" lon="4.31075">
        <ele>494</ele>
        <time>2025-11-17T19:28:51Z</time>
      </trkpt>
      <trkpt lat="45.69369" lon="4.31127">
        <ele>492</ele>
        <time>2025-11-17T19:29:20Z</time>
      </trkpt>
      <trkpt lat="45.69373" lon="4.31144">
        <ele>490</ele>
        <time>2025-11-17T19:29:30Z</time>
      </trkpt>
      <trkpt lat="45.69382" lon="4.31154">
        <ele>488</ele>
        <time>2025-11-17T19:29:39Z</time>
      </trkpt>
      <trkpt lat="45.69389" lon="4.31158">
        <ele>486</ele>
        <time>2025-11-17T19:29:45Z</time>
      </trkpt>
      <trkpt lat="45.694" lon="4.31161">
        <ele>483</ele>
        <time>2025-11-17T19:29:54Z</time>
      </trkpt>
      <trkpt lat="45.69403" lon="4.31172">
        <ele>482</ele>
        <time>2025-11-17T19:30:01Z</time>
      </trkpt>
      <trkpt lat="45.69404" lon="4.31192">
        <ele>480</ele>
        <time>2025-11-17T19:30:12Z</time>
      </trkpt>
      <trkpt lat="45.69417" lon="4.31177">
        <ele>478</ele>
        <time>2025-11-17T19:30:25Z</time>
      </trkpt>
      <trkpt lat="45.69428" lon="4.31158">
        <ele>478</ele>
        <time>2025-11-17T19:30:39Z</time>
      </trkpt>
      <trkpt lat="45.69431" lon="4.31151">
        <ele>477</ele>
        <time>2025-11-17T19:30:44Z</time>
      </trkpt>
      <trkpt lat="45.69438" lon="4.311">
        <ele>477</ele>
        <time>2025-11-17T19:31:13Z</time>
      </trkpt>
      <trkpt lat="45.69441" lon="4.31042">
        <ele>478</ele>
        <time>2025-11-17T19:31:45Z</time>
      </trkpt>
      <trkpt lat="45.69447" lon="4.3099">
        <ele>479</ele>
        <time>2025-11-17T19:32:15Z</time>
      </trkpt>
      <trkpt lat="45.69458" lon="4.30934">
        <ele>476</ele>
        <time>2025-11-17T19:32:47Z</time>
      </trkpt>
      <trkpt lat="45.69476" lon="4.30873">
        <ele>470</ele>
        <time>2025-11-17T19:33:24Z</time>
      </trkpt>
      <trkpt lat="45.69494" lon="4.30829">
        <ele>467</ele>
        <time>2025-11-17T19:33:53Z</time>
      </trkpt>
      <trkpt lat="45.6952" lon="4.30796">
        <ele>460</ele>
        <time>2025-11-17T19:34:21Z</time>
      </trkpt>
      <trkpt lat="45.69532" lon="4.30771">
        <ele>457</ele>
        <time>2025-11-17T19:34:37Z</time>
      </trkpt>
      <trkpt lat="45.69537" lon="4.30757">
        <ele>455</ele>
        <time>2025-11-17T19:34:46Z</time>
      </trkpt>
      <trkpt lat="45.6954" lon="4.30748">
        <ele>454</ele>
        <time>2025-11-17T19:34:52Z</time>
      </trkpt>
      <trkpt lat="45.69564" lon="4.30698">
        <ele>448</ele>
        <time>2025-11-17T19:35:26Z</time>
      </trkpt>
      <trkpt lat="45.69574" lon="4.30689">
        <ele>447</ele>
        <time>2025-11-17T19:35:35Z</time>
      </trkpt>
      <trkpt lat="45.69598" lon="4.3067">
        <ele>444</ele>
        <time>2025-11-17T19:35:57Z</time>
      </trkpt>
      <trkpt lat="45.69631" lon="4.30653">
        <ele>440</ele>
        <time>2025-11-17T19:36:25Z</time>
      </trkpt>
      <trkpt lat="45.69654" lon="4.30638">
        <ele>436</ele>
        <time>2025-11-17T19:36:46Z</time>
      </trkpt>
      <trkpt lat="45.69667" lon="4.30627">
        <ele>435</ele>
        <time>2025-11-17T19:36:58Z</time>
      </trkpt>
      <trkpt lat="45.69681" lon="4.30602">
        <ele>431</ele>
        <time>2025-11-17T19:37:16Z</time>
      </trkpt>
      <trkpt lat="45.69697" lon="4.30576">
        <ele>427</ele>
        <time>2025-11-17T19:37:35Z</time>
      </trkpt>
      <trkpt lat="45.69708" lon="4.30551">
        <ele>423</ele>
        <time>2025-11-17T19:37:51Z</time>
      </trkpt>
      <trkpt lat="45.69731" lon="4.30521">
        <ele>418</ele>
        <time>2025-11-17T19:38:16Z</time>
      </trkpt>
      <trkpt lat="45.69735" lon="4.30503">
        <ele>416</ele>
        <time>2025-11-17T19:38:27Z</time>
      </trkpt>
      <trkpt lat="45.69744" lon="4.30502">
        <ele>416</ele>
        <time>2025-11-17T19:38:34Z</time>
      </trkpt>
      <trkpt lat="45.69759" lon="4.30493">
        <ele>414</ele>
        <time>2025-11-17T19:38:47Z</time>
      </trkpt>
      <trkpt lat="45.69758" lon="4.30499">
        <ele>414</ele>
        <time>2025-11-17T19:38:51Z</time>
      </trkpt>
      <trkpt lat="45.69736" lon="4.30557">
        <ele>420</ele>
        <time>2025-11-17T19:39:28Z</time>
      </trkpt>
      <trkpt lat="45.69734" lon="4.30566">
        <ele>420</ele>
        <time>2025-11-17T19:39:33Z</time>
      </trkpt>
      <trkpt lat="45.69734" lon="4.30572">
        <ele>421</ele>
        <time>2025-11-17T19:39:36Z</time>
      </trkpt>
      <trkpt lat="45.69735" lon="4.30577">
        <ele>421</ele>
        <time>2025-11-17T19:39:39Z</time>
      </trkpt>
      <trkpt lat="45.69738" lon="4.30584">
        <ele>421</ele>
        <time>2025-11-17T19:39:44Z</time>
      </trkpt>
      <trkpt lat="45.69742" lon="4.30585">
        <ele>420</ele>
        <time>2025-11-17T19:39:47Z</time>
      </trkpt>
      <trkpt lat="45.69754" lon="4.30576">
        <ele>418</ele>
        <time>2025-11-17T19:39:58Z</time>
      </trkpt>
      <trkpt lat="45.69761" lon="4.30573">
        <ele>418</ele>
        <time>2025-11-17T19:40:04Z</time>
      </trkpt>
      <trkpt lat="45.69765" lon="4.30572">
        <ele>418</ele>
        <time>2025-11-17T19:40:07Z</time>
      </trkpt>
      <trkpt lat="45.69775" lon="4.30574">
        <ele>417</ele>
        <time>2025-11-17T19:40:15Z</time>
      </trkpt>
      <trkpt lat="45.69791" lon="4.30581">
        <ele>416</ele>
        <time>2025-11-17T19:40:28Z</time>
      </trkpt>
      <trkpt lat="45.698" lon="4.30587">
        <ele>416</ele>
        <time>2025-11-17T19:40:36Z</time>
      </trkpt>
      <trkpt lat="45.6981" lon="4.30594">
        <ele>417</ele>
        <time>2025-11-17T19:40:45Z</time>
      </trkpt>
      <trkpt lat="45.69819" lon="4.30604">
        <ele>418</ele>
        <time>2025-11-17T19:40:54Z</time>
      </trkpt>
      <trkpt lat="45.69825" lon="4.30607">
        <ele>418</ele>
        <time>2025-11-17T19:40:59Z</time>
      </trkpt>
      <trkpt lat="45.69829" lon="4.30612">
        <ele>419</ele>
        <time>2025-11-17T19:41:04Z</time>
      </trkpt>
      <trkpt lat="45.69835" lon="4.30619">
        <ele>420</ele>
        <time>2025-11-17T19:41:10Z</time>
      </trkpt>
      <trkpt lat="45.69847" lon="4.30628">
        <ele>421</ele>
        <time>2025-11-17T19:41:21Z</time>
      </trkpt>
      <trkpt lat="45.69853" lon="4.30633">
        <ele>421</ele>
        <time>2025-11-17T19:41:26Z</time>
      </trkpt>
      <trkpt lat="45.69871" lon="4.30643">
        <ele>422</ele>
        <time>2025-11-17T19:41:42Z</time>
      </trkpt>
      <trkpt lat="45.69894" lon="4.3066">
        <ele>424</ele>
        <time>2025-11-17T19:42:02Z</time>
      </trkpt>
      <trkpt lat="45.69902" lon="4.30676">
        <ele>427</ele>
        <time>2025-11-17T19:42:13Z</time>
      </trkpt>
      <trkpt lat="45.6991" lon="4.30686">
        <ele>428</ele>
        <time>2025-11-17T19:42:22Z</time>
      </trkpt>
      <trkpt lat="45.6992" lon="4.3069">
        <ele>428</ele>
        <time>2025-11-17T19:42:30Z</time>
      </trkpt>
      <trkpt lat="45.6994" lon="4.30694">
        <ele>428</ele>
        <time>2025-11-17T19:42:46Z</time>
      </trkpt>
      <trkpt lat="45.69962" lon="4.30697">
        <ele>428</ele>
        <time>2025-11-17T19:43:04Z</time>
      </trkpt>
      <trkpt lat="45.69988" lon="4.30695">
        <ele>428</ele>
        <time>2025-11-17T19:43:25Z</time>
      </trkpt>
      <trkpt lat="45.70008" lon="4.30696">
        <ele>428</ele>
        <time>2025-11-17T19:43:41Z</time>
      </trkpt>
      <trkpt lat="45.70021" lon="4.30696">
        <ele>427</ele>
        <time>2025-11-17T19:43:51Z</time>
      </trkpt>
      <trkpt lat="45.70028" lon="4.3069">
        <ele>426</ele>
        <time>2025-11-17T19:43:58Z</time>
      </trkpt>
      <trkpt lat="45.70034" lon="4.30678">
        <ele>425</ele>
        <time>2025-11-17T19:44:06Z</time>
      </trkpt>
      <trkpt lat="45.7005" lon="4.30641">
        <ele>419</ele>
        <time>2025-11-17T19:44:31Z</time>
      </trkpt>
      <trkpt lat="45.70058" lon="4.30633">
        <ele>418</ele>
        <time>2025-11-17T19:44:38Z</time>
      </trkpt>
      <trkpt lat="45.70071" lon="4.30628">
        <ele>417</ele>
        <time>2025-11-17T19:44:49Z</time>
      </trkpt>
      <trkpt lat="45.70086" lon="4.30627">
        <ele>417</ele>
        <time>2025-11-17T19:45:01Z</time>
      </trkpt>
      <trkpt lat="45.70115" lon="4.30636">
        <ele>417</ele>
        <time>2025-11-17T19:45:25Z</time>
      </trkpt>
      <trkpt lat="45.70137" lon="4.30635">
        <ele>417</ele>
        <time>2025-11-17T19:45:43Z</time>
      </trkpt>
      <trkpt lat="45.70164" lon="4.30638">
        <ele>417</ele>
        <time>2025-11-17T19:46:04Z</time>
      </trkpt>
      <trkpt lat="45.70256" lon="4.3064">
        <ele>419</ele>
        <time>2025-11-17T19:47:18Z</time>
      </trkpt>
      <trkpt lat="45.7026" lon="4.30641">
        <ele>419</ele>
        <time>2025-11-17T19:47:21Z</time>
      </trkpt>
      <trkpt lat="45.70275" lon="4.30646">
        <ele>419</ele>
        <time>2025-11-17T19:47:33Z</time>
      </trkpt>
      <trkpt lat="45.70282" lon="4.30646">
        <ele>418</ele>
        <time>2025-11-17T19:47:39Z</time>
      </trkpt>
      <trkpt lat="45.70303" lon="4.30642">
        <ele>417</ele>
        <time>2025-11-17T19:47:56Z</time>
      </trkpt>
      <trkpt lat="45.70311" lon="4.30642">
        <ele>416</ele>
        <time>2025-11-17T19:48:02Z</time>
      </trkpt>
      <trkpt lat="45.70316" lon="4.30644">
        <ele>416</ele>
        <time>2025-11-17T19:48:07Z</time>
      </trkpt>
      <trkpt lat="45.7032" lon="4.30648">
        <ele>416</ele>
        <time>2025-11-17T19:48:11Z</time>
      </trkpt>
      <trkpt lat="45.70327" lon="4.30659">
        <ele>417</ele>
        <time>2025-11-17T19:48:19Z</time>
      </trkpt>
      <trkpt lat="45.70329" lon="4.30662">
        <ele>417</ele>
        <time>2025-11-17T19:48:21Z</time>
      </trkpt>
      <trkpt lat="45.70351" lon="4.3063">
        <ele>413</ele>
        <time>2025-11-17T19:48:46Z</time>
      </trkpt>
      <trkpt lat="45.70373" lon="4.30601">
        <ele>409</ele>
        <time>2025-11-17T19:49:10Z</time>
      </trkpt>
      <trkpt lat="45.70385" lon="4.30588">
        <ele>408</ele>
        <time>2025-11-17T19:49:22Z</time>
      </trkpt>
      <trkpt lat="45.70408" lon="4.30569">
        <ele>406</ele>
        <time>2025-11-17T19:49:44Z</time>
      </trkpt>
      <trkpt lat="45.70437" lon="4.30596">
        <ele>406</ele>
        <time>2025-11-17T19:50:11Z</time>
      </trkpt>
      <trkpt lat="45.70447" lon="4.30601">
        <ele>405</ele>
        <time>2025-11-17T19:50:20Z</time>
      </trkpt>
      <trkpt lat="45.70565" lon="4.30632">
        <ele>394</ele>
        <time>2025-11-17T19:51:56Z</time>
      </trkpt>
      <trkpt lat="45.70593" lon="4.30647">
        <ele>391</ele>
        <time>2025-11-17T19:52:20Z</time>
      </trkpt>
      <trkpt lat="45.70637" lon="4.30666">
        <ele>387</ele>
        <time>2025-11-17T19:52:56Z</time>
      </trkpt>
      <trkpt lat="45.70638" lon="4.30666">
        <ele>387</ele>
        <time>2025-11-17T19:52:57Z</time>
      </trkpt>
      <trkpt lat="45.70643" lon="4.30651">
        <ele>387</ele>
        <time>2025-11-17T19:53:07Z</time>
      </trkpt>
      <trkpt lat="45.70657" lon="4.30613">
        <ele>385</ele>
        <time>2025-11-17T19:53:31Z</time>
      </trkpt>
      <trkpt lat="45.7066" lon="4.30613">
        <ele>385</ele>
        <time>2025-11-17T19:53:33Z</time>
      </trkpt>
      <trkpt lat="45.70666" lon="4.30613">
        <ele>384</ele>
        <time>2025-11-17T19:53:38Z</time>
      </trkpt>
      <trkpt lat="45.70717" lon="4.30607">
        <ele>387</ele>
        <time>2025-11-17T19:54:19Z</time>
      </trkpt>
      <trkpt lat="45.70719" lon="4.30607">
        <ele>387</ele>
        <time>2025-11-17T19:54:20Z</time>
      </trkpt>
      <trkpt lat="45.70721" lon="4.30629">
        <ele>388</ele>
        <time>2025-11-17T19:54:33Z</time>
      </trkpt>
      <trkpt lat="45.70723" lon="4.30636">
        <ele>388</ele>
        <time>2025-11-17T19:54:37Z</time>
      </trkpt>
      <trkpt lat="45.70725" lon="4.3064">
        <ele>389</ele>
        <time>2025-11-17T19:54:40Z</time>
      </trkpt>
      <trkpt lat="45.70727" lon="4.30642">
        <ele>389</ele>
        <time>2025-11-17T19:54:42Z</time>
      </trkpt>
      <trkpt lat="45.70731" lon="4.30644">
        <ele>389</ele>
        <time>2025-11-17T19:54:45Z</time>
      </trkpt>
      <trkpt lat="45.70744" lon="4.30643">
        <ele>390</ele>
        <time>2025-11-17T19:54:56Z</time>
      </trkpt>
      <trkpt lat="45.70744" lon="4.30642">
        <ele>390</ele>
        <time>2025-11-17T19:54:56Z</time>
      </trkpt>
      <trkpt lat="45.70744" lon="4.30643">
        <ele>390</ele>
        <time>2025-11-17T19:54:57Z</time>
      </trkpt>
      <trkpt lat="45.70742" lon="4.3067">
        <ele>392</ele>
        <time>2025-11-17T19:55:12Z</time>
      </trkpt>
      <trkpt lat="45.70774" lon="4.30673">
        <ele>395</ele>
        <time>2025-11-17T19:55:38Z</time>
      </trkpt>
      <trkpt lat="45.70803" lon="4.30671">
        <ele>398</ele>
        <time>2025-11-17T19:56:01Z</time>
      </trkpt>
      <trkpt lat="45.70828" lon="4.30667">
        <ele>400</ele>
        <time>2025-11-17T19:56:21Z</time>
      </trkpt>
      <trkpt lat="45.70867" lon="4.30654">
        <ele>403</ele>
        <time>2025-11-17T19:56:53Z</time>
      </trkpt>
      <trkpt lat="45.70875" lon="4.30649">
        <ele>403</ele>
        <time>2025-11-17T19:57:00Z</time>
      </trkpt>
      <trkpt lat="45.70897" lon="4.30624">
        <ele>404</ele>
        <time>2025-11-17T19:57:22Z</time>
      </trkpt>
      <trkpt lat="45.70907" lon="4.30616">
        <ele>404</ele>
        <time>2025-11-17T19:57:32Z</time>
      </trkpt>
      <trkpt lat="45.70954" lon="4.3059">
        <ele>407</ele>
        <time>2025-11-17T19:58:12Z</time>
      </trkpt>
      <trkpt lat="45.71011" lon="4.30565">
        <ele>411</ele>
        <time>2025-11-17T19:59:00Z</time>
      </trkpt>
      <trkpt lat="45.7102" lon="4.30563">
        <ele>411</ele>
        <time>2025-11-17T19:59:07Z</time>
      </trkpt>
      <trkpt lat="45.71093" lon="4.30567">
        <ele>414</ele>
        <time>2025-11-17T20:00:05Z</time>
      </trkpt>
      <trkpt lat="45.71098" lon="4.3057">
        <ele>414</ele>
        <time>2025-11-17T20:00:10Z</time>
      </trkpt>
      <trkpt lat="45.71093" lon="4.30567">
        <ele>414</ele>
        <time>2025-11-17T20:00:14Z</time>
      </trkpt>
      <trkpt lat="45.71163" lon="4.30563">
        <ele>412</ele>
        <time>2025-11-17T20:01:10Z</time>
      </trkpt>
      <trkpt lat="45.71177" lon="4.3056">
        <ele>412</ele>
        <time>2025-11-17T20:01:22Z</time>
      </trkpt>
      <trkpt lat="45.7123" lon="4.30528">
        <ele>409</ele>
        <time>2025-11-17T20:02:08Z</time>
      </trkpt>
      <trkpt lat="45.71284" lon="4.30493">
        <ele>409</ele>
        <time>2025-11-17T20:02:55Z</time>
      </trkpt>
      <trkpt lat="45.71291" lon="4.30483">
        <ele>408</ele>
        <time>2025-11-17T20:03:03Z</time>
      </trkpt>
      <trkpt lat="45.71312" lon="4.30409">
        <ele>403</ele>
        <time>2025-11-17T20:03:48Z</time>
      </trkpt>
      <trkpt lat="45.71318" lon="4.30399">
        <ele>402</ele>
        <time>2025-11-17T20:03:55Z</time>
      </trkpt>
      <trkpt lat="45.71382" lon="4.30348">
        <ele>399</ele>
        <time>2025-11-17T20:04:54Z</time>
      </trkpt>
      <trkpt lat="45.71465" lon="4.303">
        <ele>397</ele>
        <time>2025-11-17T20:06:05Z</time>
      </trkpt>
      <trkpt lat="45.7149" lon="4.30279">
        <ele>396</ele>
        <time>2025-11-17T20:06:29Z</time>
      </trkpt>
      <trkpt lat="45.71493" lon="4.30273">
        <ele>396</ele>
        <time>2025-11-17T20:06:33Z</time>
      </trkpt>
      <trkpt lat="45.71493" lon="4.30263">
        <ele>395</ele>
        <time>2025-11-17T20:06:38Z</time>
      </trkpt>
      <trkpt lat="45.71491" lon="4.30243">
        <ele>394</ele>
        <time>2025-11-17T20:06:50Z</time>
      </trkpt>
      <trkpt lat="45.71491" lon="4.30242">
        <ele>394</ele>
        <time>2025-11-17T20:06:50Z</time>
      </trkpt>
      <trkpt lat="45.7148" lon="4.30194">
        <ele>390</ele>
        <time>2025-11-17T20:07:18Z</time>
      </trkpt>
      <trkpt lat="45.71479" lon="4.30181">
        <ele>389</ele>
        <time>2025-11-17T20:07:26Z</time>
      </trkpt>
      <trkpt lat="45.7148" lon="4.30168">
        <ele>389</ele>
        <time>2025-11-17T20:07:33Z</time>
      </trkpt>
      <trkpt lat="45.71493" lon="4.3013">
        <ele>387</ele>
        <time>2025-11-17T20:07:57Z</time>
      </trkpt>
      <trkpt lat="45.71495" lon="4.30134">
        <ele>387</ele>
        <time>2025-11-17T20:07:59Z</time>
      </trkpt>
      <trkpt lat="45.715" lon="4.30142">
        <ele>388</ele>
        <time>2025-11-17T20:08:05Z</time>
      </trkpt>
      <trkpt lat="45.71508" lon="4.30146">
        <ele>388</ele>
        <time>2025-11-17T20:08:12Z</time>
      </trkpt>
      <trkpt lat="45.71536" lon="4.30156">
        <ele>388</ele>
        <time>2025-11-17T20:08:35Z</time>
      </trkpt>
      <trkpt lat="45.71549" lon="4.30163">
        <ele>388</ele>
        <time>2025-11-17T20:08:46Z</time>
      </trkpt>
      <trkpt lat="45.71592" lon="4.30192">
        <ele>390</ele>
        <time>2025-11-17T20:09:24Z</time>
      </trkpt>
      <trkpt lat="45.71607" lon="4.30204">
        <ele>391</ele>
        <time>2025-11-17T20:09:38Z</time>
      </trkpt>
      <trkpt lat="45.71617" lon="4.30213">
        <ele>392</ele>
        <time>2025-11-17T20:09:48Z</time>
      </trkpt>
      <trkpt lat="45.71625" lon="4.30218">
        <ele>392</ele>
        <time>2025-11-17T20:09:55Z</time>
      </trkpt>
      <trkpt lat="45.71634" lon="4.30221">
        <ele>393</ele>
        <time>2025-11-17T20:10:02Z</time>
      </trkpt>
      <trkpt lat="45.71658" lon="4.30221">
        <ele>393</ele>
        <time>2025-11-17T20:10:21Z</time>
      </trkpt>
      <trkpt lat="45.71711" lon="4.30214">
        <ele>394</ele>
        <time>2025-11-17T20:11:04Z</time>
      </trkpt>
      <trkpt lat="45.71719" lon="4.30212">
        <ele>395</ele>
        <time>2025-11-17T20:11:10Z</time>
      </trkpt>
      <trkpt lat="45.71734" lon="4.30207">
        <ele>395</ele>
        <time>2025-11-17T20:11:23Z</time>
      </trkpt>
      <trkpt lat="45.71738" lon="4.30207">
        <ele>395</ele>
        <time>2025-11-17T20:11:26Z</time>
      </trkpt>
      <trkpt lat="45.7174" lon="4.30209">
        <ele>395</ele>
        <time>2025-11-17T20:11:28Z</time>
      </trkpt>
      <trkpt lat="45.71741" lon="4.30212">
        <ele>395</ele>
        <time>2025-11-17T20:11:30Z</time>
      </trkpt>
      <trkpt lat="45.71741" lon="4.30217">
        <ele>395</ele>
        <time>2025-11-17T20:11:33Z</time>
      </trkpt>
      <trkpt lat="45.7174" lon="4.30234">
        <ele>396</ele>
        <time>2025-11-17T20:11:42Z</time>
      </trkpt>
      <trkpt lat="45.7174" lon="4.30244">
        <ele>396</ele>
        <time>2025-11-17T20:11:48Z</time>
      </trkpt>
      <trkpt lat="45.71742" lon="4.30256">
        <ele>396</ele>
        <time>2025-11-17T20:11:55Z</time>
      </trkpt>
      <trkpt lat="45.71746" lon="4.30272">
        <ele>396</ele>
        <time>2025-11-17T20:12:04Z</time>
      </trkpt>
      <trkpt lat="45.71751" lon="4.30288">
        <ele>396</ele>
        <time>2025-11-17T20:12:14Z</time>
      </trkpt>
      <trkpt lat="45.71756" lon="4.30308">
        <ele>397</ele>
        <time>2025-11-17T20:12:26Z</time>
      </trkpt>
      <trkpt lat="45.71764" lon="4.30352">
        <ele>398</ele>
        <time>2025-11-17T20:12:51Z</time>
      </trkpt>
      <trkpt lat="45.71769" lon="4.30392">
        <ele>399</ele>
        <time>2025-11-17T20:13:14Z</time>
      </trkpt>
      <trkpt lat="45.71772" lon="4.30403">
        <ele>400</ele>
        <time>2025-11-17T20:13:20Z</time>
      </trkpt>
      <trkpt lat="45.71775" lon="4.30414">
        <ele>400</ele>
        <time>2025-11-17T20:13:27Z</time>
      </trkpt>
      <trkpt lat="45.71779" lon="4.30424">
        <ele>401</ele>
        <time>2025-11-17T20:13:34Z</time>
      </trkpt>
      <trkpt lat="45.71784" lon="4.30433">
        <ele>402</ele>
        <time>2025-11-17T20:13:40Z</time>
      </trkpt>
      <trkpt lat="45.71797" lon="4.30453">
        <ele>403</ele>
        <time>2025-11-17T20:13:55Z</time>
      </trkpt>
      <trkpt lat="45.718" lon="4.30457">
        <ele>404</ele>
        <time>2025-11-17T20:13:59Z</time>
      </trkpt>
      <trkpt lat="45.71801" lon="4.30457">
        <ele>404</ele>
        <time>2025-11-17T20:13:59Z</time>
      </trkpt>
      <trkpt lat="45.71806" lon="4.30458">
        <ele>404</ele>
        <time>2025-11-17T20:14:03Z</time>
      </trkpt>
      <trkpt lat="45.71823" lon="4.30449">
        <ele>405</ele>
        <time>2025-11-17T20:14:18Z</time>
      </trkpt>
      <trkpt lat="45.71832" lon="4.30447">
        <ele>405</ele>
        <time>2025-11-17T20:14:25Z</time>
      </trkpt>
      <trkpt lat="45.71837" lon="4.30449">
        <ele>406</ele>
        <time>2025-11-17T20:14:29Z</time>
      </trkpt>
      <trkpt lat="45.7184" lon="4.30452">
        <ele>406</ele>
        <time>2025-11-17T20:14:32Z</time>
      </trkpt>
      <trkpt lat="45.71846" lon="4.30468">
        <ele>408</ele>
        <time>2025-11-17T20:14:42Z</time>
      </trkpt>
      <trkpt lat="45.71857" lon="4.30509">
        <ele>412</ele>
        <time>2025-11-17T20:15:07Z</time>
      </trkpt>
      <trkpt lat="45.7186" lon="4.30519">
        <ele>413</ele>
        <time>2025-11-17T20:15:13Z</time>
      </trkpt>
      <trkpt lat="45.7187" lon="4.30522">
        <ele>415</ele>
        <time>2025-11-17T20:15:21Z</time>
      </trkpt>
      <trkpt lat="45.71885" lon="4.30519">
        <ele>416</ele>
        <time>2025-11-17T20:15:33Z</time>
      </trkpt>
      <trkpt lat="45.71897" lon="4.30518">
        <ele>417</ele>
        <time>2025-11-17T20:15:43Z</time>
      </trkpt>
      <trkpt lat="45.71909" lon="4.30519">
        <ele>419</ele>
        <time>2025-11-17T20:15:53Z</time>
      </trkpt>
      <trkpt lat="45.71914" lon="4.30521">
        <ele>420</ele>
        <time>2025-11-17T20:15:57Z</time>
      </trkpt>
      <trkpt lat="45.7191" lon="4.30524">
        <ele>420</ele>
        <time>2025-11-17T20:16:00Z</time>
      </trkpt>
      <trkpt lat="45.71896" lon="4.3055">
        <ele>422</ele>
        <time>2025-11-17T20:16:19Z</time>
      </trkpt>
      <trkpt lat="45.71878" lon="4.30578">
        <ele>423</ele>
        <time>2025-11-17T20:16:40Z</time>
      </trkpt>
      <trkpt lat="45.71866" lon="4.30604">
        <ele>424</ele>
        <time>2025-11-17T20:16:57Z</time>
      </trkpt>
      <trkpt lat="45.71859" lon="4.30634">
        <ele>426</ele>
        <time>2025-11-17T20:17:15Z</time>
      </trkpt>
      <trkpt lat="45.71856" lon="4.30662">
        <ele>428</ele>
        <time>2025-11-17T20:17:31Z</time>
      </trkpt>
      <trkpt lat="45.71848" lon="4.30694">
        <ele>430</ele>
        <time>2025-11-17T20:17:50Z</time>
      </trkpt>
      <trkpt lat="45.71849" lon="4.30715">
        <ele>432</ele>
        <time>2025-11-17T20:18:02Z</time>
      </trkpt>
      <trkpt lat="45.71853" lon="4.3074">
        <ele>435</ele>
        <time>2025-11-17T20:18:16Z</time>
      </trkpt>
      <trkpt lat="45.71864" lon="4.30788">
        <ele>442</ele>
        <time>2025-11-17T20:18:44Z</time>
      </trkpt>
      <trkpt lat="45.71864" lon="4.3081">
        <ele>444</ele>
        <time>2025-11-17T20:18:57Z</time>
      </trkpt>
      <trkpt lat="45.7185" lon="4.30835">
        <ele>442</ele>
        <time>2025-11-17T20:19:14Z</time>
      </trkpt>
      <trkpt lat="45.71833" lon="4.30853">
        <ele>438</ele>
        <time>2025-11-17T20:19:31Z</time>
      </trkpt>
      <trkpt lat="45.71822" lon="4.30877">
        <ele>436</ele>
        <time>2025-11-17T20:19:47Z</time>
      </trkpt>
      <trkpt lat="45.71822" lon="4.30899">
        <ele>437</ele>
        <time>2025-11-17T20:20:00Z</time>
      </trkpt>
      <trkpt lat="45.71841" lon="4.30919">
        <ele>440</ele>
        <time>2025-11-17T20:20:19Z</time>
      </trkpt>
      <trkpt lat="45.71859" lon="4.30935">
        <ele>443</ele>
        <time>2025-11-17T20:20:36Z</time>
      </trkpt>
      <trkpt lat="45.7187" lon="4.3095">
        <ele>444</ele>
        <time>2025-11-17T20:20:48Z</time>
      </trkpt>
      <trkpt lat="45.71886" lon="4.31013">
        <ele>443</ele>
        <time>2025-11-17T20:21:25Z</time>
      </trkpt>
      <trkpt lat="45.71882" lon="4.31037">
        <ele>443</ele>
        <time>2025-11-17T20:21:39Z</time>
      </trkpt>
      <trkpt lat="45.71873" lon="4.31061">
        <ele>442</ele>
        <time>2025-11-17T20:21:54Z</time>
      </trkpt>
      <trkpt lat="45.71867" lon="4.31088">
        <ele>442</ele>
        <time>2025-11-17T20:22:10Z</time>
      </trkpt>
      <trkpt lat="45.71866" lon="4.31125">
        <ele>444</ele>
        <time>2025-11-17T20:22:31Z</time>
      </trkpt>
      <trkpt lat="45.71862" lon="4.31169">
        <ele>446</ele>
        <time>2025-11-17T20:22:56Z</time>
      </trkpt>
      <trkpt lat="45.71861" lon="4.31207">
        <ele>449</ele>
        <time>2025-11-17T20:23:17Z</time>
      </trkpt>
      <trkpt lat="45.71863" lon="4.31238">
        <ele>452</ele>
        <time>2025-11-17T20:23:34Z</time>
      </trkpt>
      <trkpt lat="45.71851" lon="4.31278">
        <ele>454</ele>
        <time>2025-11-17T20:23:59Z</time>
      </trkpt>
      <trkpt lat="45.71847" lon="4.31301">
        <ele>455</ele>
        <time>2025-11-17T20:24:12Z</time>
      </trkpt>
      <trkpt lat="45.71841" lon="4.31335">
        <ele>457</ele>
        <time>2025-11-17T20:24:31Z</time>
      </trkpt>
      <trkpt lat="45.7184" lon="4.31362">
        <ele>456</ele>
        <time>2025-11-17T20:24:47Z</time>
      </trkpt>
      <trkpt lat="45.71844" lon="4.31401">
        <ele>457</ele>
        <time>2025-11-17T20:25:09Z</time>
      </trkpt>
      <trkpt lat="45.71849" lon="4.31431">
        <ele>460</ele>
        <time>2025-11-17T20:25:26Z</time>
      </trkpt>
      <trkpt lat="45.71843" lon="4.31452">
        <ele>460</ele>
        <time>2025-11-17T20:25:39Z</time>
      </trkpt>
      <trkpt lat="45.71831" lon="4.31476">
        <ele>460</ele>
        <time>2025-11-17T20:25:55Z</time>
      </trkpt>
      <trkpt lat="45.7182" lon="4.31514">
        <ele>462</ele>
        <time>2025-11-17T20:26:18Z</time>
      </trkpt>
      <trkpt lat="45.71813" lon="4.31547">
        <ele>463</ele>
        <time>2025-11-17T20:26:37Z</time>
      </trkpt>
      <trkpt lat="45.71814" lon="4.31575">
        <ele>465</ele>
        <time>2025-11-17T20:26:53Z</time>
      </trkpt>
      <trkpt lat="45.71826" lon="4.31614">
        <ele>465</ele>
        <time>2025-11-17T20:27:17Z</time>
      </trkpt>
      <trkpt lat="45.7184" lon="4.3165">
        <ele>465</ele>
        <time>2025-11-17T20:27:40Z</time>
      </trkpt>
      <trkpt lat="45.71838" lon="4.31679">
        <ele>465</ele>
        <time>2025-11-17T20:27:56Z</time>
      </trkpt>
      <trkpt lat="45.71841" lon="4.31704">
        <ele>465</ele>
        <time>2025-11-17T20:28:10Z</time>
      </trkpt>
      <trkpt lat="45.71841" lon="4.31722">
        <ele>465</ele>
        <time>2025-11-17T20:28:20Z</time>
      </trkpt>
      <trkpt lat="45.71829" lon="4.31787">
        <ele>466</ele>
        <time>2025-11-17T20:28:58Z</time>
      </trkpt>
      <trkpt lat="45.71814" lon="4.31814">
        <ele>469</ele>
        <time>2025-11-17T20:29:17Z</time>
      </trkpt>
      <trkpt lat="45.71792" lon="4.31848">
        <ele>471</ele>
        <time>2025-11-17T20:29:43Z</time>
      </trkpt>
      <trkpt lat="45.71775" lon="4.31879">
        <ele>473</ele>
        <time>2025-11-17T20:30:05Z</time>
      </trkpt>
      <trkpt lat="45.71743" lon="4.31938">
        <ele>476</ele>
        <time>2025-11-17T20:30:47Z</time>
      </trkpt>
      <trkpt lat="45.71723" lon="4.31963">
        <ele>479</ele>
        <time>2025-11-17T20:31:08Z</time>
      </trkpt>
      <trkpt lat="45.71701" lon="4.31987">
        <ele>481</ele>
        <time>2025-11-17T20:31:30Z</time>
      </trkpt>
      <trkpt lat="45.7168" lon="4.32005">
        <ele>481</ele>
        <time>2025-11-17T20:31:50Z</time>
      </trkpt>
      <trkpt lat="45.71665" lon="4.32024">
        <ele>484</ele>
        <time>2025-11-17T20:32:06Z</time>
      </trkpt>
      <trkpt lat="45.71656" lon="4.32093">
        <ele>490</ele>
        <time>2025-11-17T20:32:45Z</time>
      </trkpt>
      <trkpt lat="45.71652" lon="4.32114">
        <ele>492</ele>
        <time>2025-11-17T20:32:57Z</time>
      </trkpt>
      <trkpt lat="45.71649" lon="4.32139">
        <ele>494</ele>
        <time>2025-11-17T20:33:12Z</time>
      </trkpt>
      <trkpt lat="45.71649" lon="4.3217">
        <ele>496</ele>
        <time>2025-11-17T20:33:29Z</time>
      </trkpt>
      <trkpt lat="45.71654" lon="4.32214">
        <ele>498</ele>
        <time>2025-11-17T20:33:54Z</time>
      </trkpt>
      <trkpt lat="45.71656" lon="4.32247">
        <ele>499</ele>
        <time>2025-11-17T20:34:12Z</time>
      </trkpt>
      <trkpt lat="45.71652" lon="4.32282">
        <ele>501</ele>
        <time>2025-11-17T20:34:32Z</time>
      </trkpt>
      <trkpt lat="45.71635" lon="4.32331">
        <ele>503</ele>
        <time>2025-11-17T20:35:03Z</time>
      </trkpt>
      <trkpt lat="45.71633" lon="4.32335">
        <ele>503</ele>
        <time>2025-11-17T20:35:06Z</time>
      </trkpt>
      <trkpt lat="45.71635" lon="4.32331">
        <ele>503</ele>
        <time>2025-11-17T20:35:08Z</time>
      </trkpt>
      <trkpt lat="45.71644" lon="4.32347">
        <ele>504</ele>
        <time>2025-11-17T20:35:20Z</time>
      </trkpt>
      <trkpt lat="45.71647" lon="4.3236">
        <ele>504</ele>
        <time>2025-11-17T20:35:27Z</time>
      </trkpt>
      <trkpt lat="45.71654" lon="4.32408">
        <ele>506</ele>
        <time>2025-11-17T20:35:55Z</time>
      </trkpt>
      <trkpt lat="45.71658" lon="4.32409">
        <ele>506</ele>
        <time>2025-11-17T20:35:58Z</time>
      </trkpt>
      <trkpt lat="45.71752" lon="4.32391">
        <ele>513</ele>
        <time>2025-11-17T20:37:14Z</time>
      </trkpt>
      <trkpt lat="45.71755" lon="4.324">
        <ele>513</ele>
        <time>2025-11-17T20:37:20Z</time>
      </trkpt>
      <trkpt lat="45.7176" lon="4.32432">
        <ele>515</ele>
        <time>2025-11-17T20:37:38Z</time>
      </trkpt>
      <trkpt lat="45.71761" lon="4.32457">
        <ele>516</ele>
        <time>2025-11-17T20:37:52Z</time>
      </trkpt>
      <trkpt lat="45.71764" lon="4.32492">
        <ele>519</ele>
        <time>2025-11-17T20:38:12Z</time>
      </trkpt>
      <trkpt lat="45.71766" lon="4.32526">
        <ele>521</ele>
        <time>2025-11-17T20:38:31Z</time>
      </trkpt>
      <trkpt lat="45.71767" lon="4.3262">
        <ele>526</ele>
        <time>2025-11-17T20:39:23Z</time>
      </trkpt>
      <trkpt lat="45.71771" lon="4.32679">
        <ele>529</ele>
        <time>2025-11-17T20:39:56Z</time>
      </trkpt>
      <trkpt lat="45.71775" lon="4.32711">
        <ele>530</ele>
        <time>2025-11-17T20:40:15Z</time>
      </trkpt>
      <trkpt lat="45.71785" lon="4.32758">
        <ele>531</ele>
        <time>2025-11-17T20:40:42Z</time>
      </trkpt>
      <trkpt lat="45.71792" lon="4.3281">
        <ele>531</ele>
        <time>2025-11-17T20:41:12Z</time>
      </trkpt>
      <trkpt lat="45.71801" lon="4.32914">
        <ele>532</ele>
        <time>2025-11-17T20:42:10Z</time>
      </trkpt>
      <trkpt lat="45.71809" lon="4.32971">
        <ele>532</ele>
        <time>2025-11-17T20:42:43Z</time>
      </trkpt>
      <trkpt lat="45.71809" lon="4.32972">
        <ele>532</ele>
        <time>2025-11-17T20:42:43Z</time>
      </trkpt>
      <trkpt lat="45.71844" lon="4.32956">
        <ele>531</ele>
        <time>2025-11-17T20:43:13Z</time>
      </trkpt>
      <trkpt lat="45.71881" lon="4.3294">
        <ele>528</ele>
        <time>2025-11-17T20:43:44Z</time>
      </trkpt>
      <trkpt lat="45.71904" lon="4.32924">
        <ele>525</ele>
        <time>2025-11-17T20:44:04Z</time>
      </trkpt>
      <trkpt lat="45.71916" lon="4.32923">
        <ele>524</ele>
        <time>2025-11-17T20:44:14Z</time>
      </trkpt>
      <trkpt lat="45.71933" lon="4.32926">
        <ele>523</ele>
        <time>2025-11-17T20:44:27Z</time>
      </trkpt>
      <trkpt lat="45.71961" lon="4.32929">
        <ele>520</ele>
        <time>2025-11-17T20:44:50Z</time>
      </trkpt>
      <trkpt lat="45.71997" lon="4.32927">
        <ele>516</ele>
        <time>2025-11-17T20:45:19Z</time>
      </trkpt>
      <trkpt lat="45.72015" lon="4.32925">
        <ele>514</ele>
        <time>2025-11-17T20:45:33Z</time>
      </trkpt>
      <trkpt lat="45.72039" lon="4.32914">
        <ele>513</ele>
        <time>2025-11-17T20:45:53Z</time>
      </trkpt>
      <trkpt lat="45.72072" lon="4.32906">
        <ele>511</ele>
        <time>2025-11-17T20:46:20Z</time>
      </trkpt>
      <trkpt lat="45.72107" lon="4.32901">
        <ele>509</ele>
        <time>2025-11-17T20:46:48Z</time>
      </trkpt>
      <trkpt lat="45.72162" lon="4.32895">
        <ele>507</ele>
        <time>2025-11-17T20:47:33Z</time>
      </trkpt>
      <trkpt lat="45.72198" lon="4.32887">
        <ele>506</ele>
        <time>2025-11-17T20:48:02Z</time>
      </trkpt>
      <trkpt lat="45.72213" lon="4.32881">
        <ele>506</ele>
        <time>2025-11-17T20:48:14Z</time>
      </trkpt>
      <trkpt lat="45.72209" lon="4.32902">
        <ele>506</ele>
        <time>2025-11-17T20:48:26Z</time>
      </trkpt>
      <trkpt lat="45.72196" lon="4.33021">
        <ele>513</ele>
        <time>2025-11-17T20:49:34Z</time>
      </trkpt>
      <trkpt lat="45.72192" lon="4.33082">
        <ele>517</ele>
        <time>2025-11-17T20:50:08Z</time>
      </trkpt>
      <trkpt lat="45.72188" lon="4.33105">
        <ele>519</ele>
        <time>2025-11-17T20:50:21Z</time>
      </trkpt>
      <trkpt lat="45.72184" lon="4.33121">
        <ele>521</ele>
        <time>2025-11-17T20:50:31Z</time>
      </trkpt>
      <trkpt lat="45.72162" lon="4.33181">
        <ele>527</ele>
        <time>2025-11-17T20:51:09Z</time>
      </trkpt>
      <trkpt lat="45.72152" lon="4.3321">
        <ele>529</ele>
        <time>2025-11-17T20:51:27Z</time>
      </trkpt>
      <trkpt lat="45.72143" lon="4.33241">
        <ele>531</ele>
        <time>2025-11-17T20:51:45Z</time>
      </trkpt>
      <trkpt lat="45.72137" lon="4.33273">
        <ele>532</ele>
        <time>2025-11-17T20:52:04Z</time>
      </trkpt>
      <trkpt lat="45.72133" lon="4.3331">
        <ele>533</ele>
        <time>2025-11-17T20:52:25Z</time>
      </trkpt>
      <trkpt lat="45.72134" lon="4.33363">
        <ele>535</ele>
        <time>2025-11-17T20:52:55Z</time>
      </trkpt>
      <trkpt lat="45.72145" lon="4.33542">
        <ele>542</ele>
        <time>2025-11-17T20:54:35Z</time>
      </trkpt>
      <trkpt lat="45.72146" lon="4.33562">
        <ele>543</ele>
        <time>2025-11-17T20:54:46Z</time>
      </trkpt>
      <trkpt lat="45.72144" lon="4.33613">
        <ele>545</ele>
        <time>2025-11-17T20:55:15Z</time>
      </trkpt>
      <trkpt lat="45.72141" lon="4.33614">
        <ele>545</ele>
        <time>2025-11-17T20:55:17Z</time>
      </trkpt>
      <trkpt lat="45.72144" lon="4.33613">
        <ele>545</ele>
        <time>2025-11-17T20:55:20Z</time>
      </trkpt>
      <trkpt lat="45.72146" lon="4.33628">
        <ele>545</ele>
        <time>2025-11-17T20:55:28Z</time>
      </trkpt>
      <trkpt lat="45.72147" lon="4.3366">
        <ele>547</ele>
        <time>2025-11-17T20:55:46Z</time>
      </trkpt>
      <trkpt lat="45.72147" lon="4.33691">
        <ele>547</ele>
        <time>2025-11-17T20:56:03Z</time>
      </trkpt>
      <trkpt lat="45.72149" lon="4.33716">
        <ele>547</ele>
        <time>2025-11-17T20:56:17Z</time>
      </trkpt>
      <trkpt lat="45.72148" lon="4.33733">
        <ele>547</ele>
        <time>2025-11-17T20:56:27Z</time>
      </trkpt>
      <trkpt lat="45.72145" lon="4.33755">
        <ele>547</ele>
        <time>2025-11-17T20:56:40Z</time>
      </trkpt>
      <trkpt lat="45.72141" lon="4.33769">
        <ele>547</ele>
        <time>2025-11-17T20:56:48Z</time>
      </trkpt>
      <trkpt lat="45.72134" lon="4.3381">
        <ele>547</ele>
        <time>2025-11-17T20:57:12Z</time>
      </trkpt>
      <trkpt lat="45.72132" lon="4.33833">
        <ele>547</ele>
        <time>2025-11-17T20:57:25Z</time>
      </trkpt>
      <trkpt lat="45.72129" lon="4.3386">
        <ele>548</ele>
        <time>2025-11-17T20:57:40Z</time>
      </trkpt>
      <trkpt lat="45.72127" lon="4.33912">
        <ele>549</ele>
        <time>2025-11-17T20:58:09Z</time>
      </trkpt>
      <trkpt lat="45.72127" lon="4.33914">
        <ele>549</ele>
        <time>2025-11-17T20:58:10Z</time>
      </trkpt>
      <trkpt lat="45.72106" lon="4.3393">
        <ele>549</ele>
        <time>2025-11-17T20:58:29Z</time>
      </trkpt>
      <trkpt lat="45.72023" lon="4.33985">
        <ele>549</ele>
        <time>2025-11-17T20:59:42Z</time>
      </trkpt>
      <trkpt lat="45.72023" lon="4.33989">
        <ele>549</ele>
        <time>2025-11-17T20:59:45Z</time>
      </trkpt>
      <trkpt lat="45.72023" lon="4.33996">
        <ele>549</ele>
        <time>2025-11-17T20:59:48Z</time>
      </trkpt>
      <trkpt lat="45.72012" lon="4.33998">
        <ele>549</ele>
        <time>2025-11-17T20:59:57Z</time>
      </trkpt>
      <trkpt lat="45.71992" lon="4.34013">
        <ele>549</ele>
        <time>2025-11-17T21:00:15Z</time>
      </trkpt>
      <trkpt lat="45.71985" lon="4.34016">
        <ele>548</ele>
        <time>2025-11-17T21:00:21Z</time>
      </trkpt>
      <trkpt lat="45.71967" lon="4.34018">
        <ele>548</ele>
        <time>2025-11-17T21:00:36Z</time>
      </trkpt>
      <trkpt lat="45.71964" lon="4.34018">
        <ele>548</ele>
        <time>2025-11-17T21:00:38Z</time>
      </trkpt>
      <trkpt lat="45.71962" lon="4.34016">
        <ele>548</ele>
        <time>2025-11-17T21:00:40Z</time>
      </trkpt>
      <trkpt lat="45.71953" lon="4.33999">
        <ele>548</ele>
        <time>2025-11-17T21:00:52Z</time>
      </trkpt>
      <trkpt lat="45.71937" lon="4.33991">
        <ele>547</ele>
        <time>2025-11-17T21:01:06Z</time>
      </trkpt>
      <trkpt lat="45.71932" lon="4.33992">
        <ele>547</ele>
        <time>2025-11-17T21:01:10Z</time>
      </trkpt>
      <trkpt lat="45.71921" lon="4.33985">
        <ele>547</ele>
        <time>2025-11-17T21:01:19Z</time>
      </trkpt>
      <trkpt lat="45.71919" lon="4.33983">
        <ele>546</ele>
        <time>2025-11-17T21:01:21Z</time>
      </trkpt>
      <trkpt lat="45.7191" lon="4.33971">
        <ele>546</ele>
        <time>2025-11-17T21:01:31Z</time>
      </trkpt>
      <trkpt lat="45.71909" lon="4.33967">
        <ele>545</ele>
        <time>2025-11-17T21:01:33Z</time>
      </trkpt>
      <trkpt lat="45.71907" lon="4.33948">
        <ele>545</ele>
        <time>2025-11-17T21:01:44Z</time>
      </trkpt>
      <trkpt lat="45.71903" lon="4.33908">
        <ele>543</ele>
        <time>2025-11-17T21:02:07Z</time>
      </trkpt>
      <trkpt lat="45.71904" lon="4.33888">
        <ele>542</ele>
        <time>2025-11-17T21:02:18Z</time>
      </trkpt>
      <trkpt lat="45.71907" lon="4.33852">
        <ele>540</ele>
        <time>2025-11-17T21:02:38Z</time>
      </trkpt>
      <trkpt lat="45.71907" lon="4.33834">
        <ele>540</ele>
        <time>2025-11-17T21:02:48Z</time>
      </trkpt>
      <trkpt lat="45.71905" lon="4.33784">
        <ele>538</ele>
        <time>2025-11-17T21:03:16Z</time>
      </trkpt>
      <trkpt lat="45.71903" lon="4.33762">
        <ele>538</ele>
        <time>2025-11-17T21:03:29Z</time>
      </trkpt>
      <trkpt lat="45.71897" lon="4.33719">
        <ele>536</ele>
        <time>2025-11-17T21:03:53Z</time>
      </trkpt>
      <trkpt lat="45.7189" lon="4.337">
        <ele>534</ele>
        <time>2025-11-17T21:04:05Z</time>
      </trkpt>
      <trkpt lat="45.71883" lon="4.3369">
        <ele>533</ele>
        <time>2025-11-17T21:04:13Z</time>
      </trkpt>
      <trkpt lat="45.71866" lon="4.33673">
        <ele>531</ele>
        <time>2025-11-17T21:04:30Z</time>
      </trkpt>
      <trkpt lat="45.71841" lon="4.3365">
        <ele>528</ele>
        <time>2025-11-17T21:04:54Z</time>
      </trkpt>
      <trkpt lat="45.71818" lon="4.33633">
        <ele>526</ele>
        <time>2025-11-17T21:05:14Z</time>
      </trkpt>
      <trkpt lat="45.71809" lon="4.33625">
        <ele>525</ele>
        <time>2025-11-17T21:05:23Z</time>
      </trkpt>
      <trkpt lat="45.71773" lon="4.33589">
        <ele>521</ele>
        <time>2025-11-17T21:05:58Z</time>
      </trkpt>
      <trkpt lat="45.71765" lon="4.33577">
        <ele>520</ele>
        <time>2025-11-17T21:06:07Z</time>
      </trkpt>
      <trkpt lat="45.71752" lon="4.33553">
        <ele>521</ele>
        <time>2025-11-17T21:06:24Z</time>
      </trkpt>
      <trkpt lat="45.71745" lon="4.33545">
        <ele>521</ele>
        <time>2025-11-17T21:06:31Z</time>
      </trkpt>
      <trkpt lat="45.7174" lon="4.33538">
        <ele>521</ele>
        <time>2025-11-17T21:06:37Z</time>
      </trkpt>
      <trkpt lat="45.71745" lon="4.33545">
        <ele>521</ele>
        <time>2025-11-17T21:06:43Z</time>
      </trkpt>
      <trkpt lat="45.71737" lon="4.33542">
        <ele>521</ele>
        <time>2025-11-17T21:06:49Z</time>
      </trkpt>
      <trkpt lat="45.71628" lon="4.33515">
        <ele>516</ele>
        <time>2025-11-17T21:08:18Z</time>
      </trkpt>
      <trkpt lat="45.7161" lon="4.33508">
        <ele>516</ele>
        <time>2025-11-17T21:08:33Z</time>
      </trkpt>
      <trkpt lat="45.71557" lon="4.33478">
        <ele>518</ele>
        <time>2025-11-17T21:09:18Z</time>
      </trkpt>
      <trkpt lat="45.71527" lon="4.33457">
        <ele>519</ele>
        <time>2025-11-17T21:09:45Z</time>
      </trkpt>
      <trkpt lat="45.71503" lon="4.33449">
        <ele>519</ele>
        <time>2025-11-17T21:10:05Z</time>
      </trkpt>
      <trkpt lat="45.71484" lon="4.33446">
        <ele>519</ele>
        <time>2025-11-17T21:10:20Z</time>
      </trkpt>
      <trkpt lat="45.71455" lon="4.3344">
        <ele>520</ele>
        <time>2025-11-17T21:10:44Z</time>
      </trkpt>
      <trkpt lat="45.71434" lon="4.33435">
        <ele>520</ele>
        <time>2025-11-17T21:11:01Z</time>
      </trkpt>
      <trkpt lat="45.71416" lon="4.33429">
        <ele>521</ele>
        <time>2025-11-17T21:11:15Z</time>
      </trkpt>
      <trkpt lat="45.71394" lon="4.33418">
        <ele>522</ele>
        <time>2025-11-17T21:11:34Z</time>
      </trkpt>
      <trkpt lat="45.7138" lon="4.33408">
        <ele>522</ele>
        <time>2025-11-17T21:11:47Z</time>
      </trkpt>
      <trkpt lat="45.7137" lon="4.33399">
        <ele>523</ele>
        <time>2025-11-17T21:11:56Z</time>
      </trkpt>
      <trkpt lat="45.71356" lon="4.33388">
        <ele>523</ele>
        <time>2025-11-17T21:12:09Z</time>
      </trkpt>
      <trkpt lat="45.71341" lon="4.33378">
        <ele>523</ele>
        <time>2025-11-17T21:12:22Z</time>
      </trkpt>
      <trkpt lat="45.71325" lon="4.3337">
        <ele>523</ele>
        <time>2025-11-17T21:12:36Z</time>
      </trkpt>
      <trkpt lat="45.71316" lon="4.33368">
        <ele>522</ele>
        <time>2025-11-17T21:12:43Z</time>
      </trkpt>
      <trkpt lat="45.71308" lon="4.33361">
        <ele>522</ele>
        <time>2025-11-17T21:12:50Z</time>
      </trkpt>
      <trkpt lat="45.71301" lon="4.3335">
        <ele>521</ele>
        <time>2025-11-17T21:12:59Z</time>
      </trkpt>
      <trkpt lat="45.71286" lon="4.33321">
        <ele>521</ele>
        <time>2025-11-17T21:13:19Z</time>
      </trkpt>
      <trkpt lat="45.71279" lon="4.33311">
        <ele>521</ele>
        <time>2025-11-17T21:13:27Z</time>
      </trkpt>
      <trkpt lat="45.71249" lon="4.33292">
        <ele>520</ele>
        <time>2025-11-17T21:13:53Z</time>
      </trkpt>
      <trkpt lat="45.71229" lon="4.33278">
        <ele>519</ele>
        <time>2025-11-17T21:14:11Z</time>
      </trkpt>
      <trkpt lat="45.71202" lon="4.33258">
        <ele>517</ele>
        <time>2025-11-17T21:14:35Z</time>
      </trkpt>
      <trkpt lat="45.71192" lon="4.33252">
        <ele>516</ele>
        <time>2025-11-17T21:14:44Z</time>
      </trkpt>
      <trkpt lat="45.71174" lon="4.33242">
        <ele>514</ele>
        <time>2025-11-17T21:14:59Z</time>
      </trkpt>
      <trkpt lat="45.71133" lon="4.3323">
        <ele>512</ele>
        <time>2025-11-17T21:15:33Z</time>
      </trkpt>
      <trkpt lat="45.71128" lon="4.33226">
        <ele>512</ele>
        <time>2025-11-17T21:15:37Z</time>
      </trkpt>
      <trkpt lat="45.71123" lon="4.3322">
        <ele>512</ele>
        <time>2025-11-17T21:15:43Z</time>
      </trkpt>
      <trkpt lat="45.71119" lon="4.33208">
        <ele>512</ele>
        <time>2025-11-17T21:15:50Z</time>
      </trkpt>
      <trkpt lat="45.71111" lon="4.33172">
        <ele>514</ele>
        <time>2025-11-17T21:16:11Z</time>
      </trkpt>
      <trkpt lat="45.71104" lon="4.33121">
        <ele>515</ele>
        <time>2025-11-17T21:16:40Z</time>
      </trkpt>
      <trkpt lat="45.71102" lon="4.33112">
        <ele>515</ele>
        <time>2025-11-17T21:16:46Z</time>
      </trkpt>
      <trkpt lat="45.71099" lon="4.33106">
        <ele>515</ele>
        <time>2025-11-17T21:16:50Z</time>
      </trkpt>
      <trkpt lat="45.71085" lon="4.33096">
        <ele>515</ele>
        <time>2025-11-17T21:17:02Z</time>
      </trkpt>
      <trkpt lat="45.71069" lon="4.33087">
        <ele>514</ele>
        <time>2025-11-17T21:17:16Z</time>
      </trkpt>
      <trkpt lat="45.71063" lon="4.33084">
        <ele>514</ele>
        <time>2025-11-17T21:17:21Z</time>
      </trkpt>
      <trkpt lat="45.71018" lon="4.33062">
        <ele>512</ele>
        <time>2025-11-17T21:17:59Z</time>
      </trkpt>
      <trkpt lat="45.71008" lon="4.33055">
        <ele>512</ele>
        <time>2025-11-17T21:18:08Z</time>
      </trkpt>
      <trkpt lat="45.70989" lon="4.33042">
        <ele>511</ele>
        <time>2025-11-17T21:18:25Z</time>
      </trkpt>
      <trkpt lat="45.70984" lon="4.33039">
        <ele>510</ele>
        <time>2025-11-17T21:18:29Z</time>
      </trkpt>
      <trkpt lat="45.70977" lon="4.33038">
        <ele>510</ele>
        <time>2025-11-17T21:18:35Z</time>
      </trkpt>
      <trkpt lat="45.70937" lon="4.33037">
        <ele>506</ele>
        <time>2025-11-17T21:19:07Z</time>
      </trkpt>
      <trkpt lat="45.70929" lon="4.33039">
        <ele>506</ele>
        <time>2025-11-17T21:19:13Z</time>
      </trkpt>
      <trkpt lat="45.70917" lon="4.33044">
        <ele>505</ele>
        <time>2025-11-17T21:19:23Z</time>
      </trkpt>
      <trkpt lat="45.70874" lon="4.3305">
        <ele>500</ele>
        <time>2025-11-17T21:19:58Z</time>
      </trkpt>
      <trkpt lat="45.70847" lon="4.33047">
        <ele>496</ele>
        <time>2025-11-17T21:20:20Z</time>
      </trkpt>
      <trkpt lat="45.70834" lon="4.33049">
        <ele>494</ele>
        <time>2025-11-17T21:20:30Z</time>
      </trkpt>
      <trkpt lat="45.70824" lon="4.33043">
        <ele>492</ele>
        <time>2025-11-17T21:20:39Z</time>
      </trkpt>
      <trkpt lat="45.70805" lon="4.33021">
        <ele>489</ele>
        <time>2025-11-17T21:20:58Z</time>
      </trkpt>
      <trkpt lat="45.70795" lon="4.33014">
        <ele>488</ele>
        <time>2025-11-17T21:21:07Z</time>
      </trkpt>
      <trkpt lat="45.70777" lon="4.33015">
        <ele>485</ele>
        <time>2025-11-17T21:21:22Z</time>
      </trkpt>
      <trkpt lat="45.70765" lon="4.33022">
        <ele>483</ele>
        <time>2025-11-17T21:21:32Z</time>
      </trkpt>
      <trkpt lat="45.70759" lon="4.33035">
        <ele>481</ele>
        <time>2025-11-17T21:21:41Z</time>
      </trkpt>
      <trkpt lat="45.70757" lon="4.33044">
        <ele>481</ele>
        <time>2025-11-17T21:21:46Z</time>
      </trkpt>
      <trkpt lat="45.70752" lon="4.33049">
        <ele>479</ele>
        <time>2025-11-17T21:21:51Z</time>
      </trkpt>
      <trkpt lat="45.70746" lon="4.33049">
        <ele>478</ele>
        <time>2025-11-17T21:21:56Z</time>
      </trkpt>
      <trkpt lat="45.70739" lon="4.33045">
        <ele>477</ele>
        <time>2025-11-17T21:22:02Z</time>
      </trkpt>
      <trkpt lat="45.70707" lon="4.33014">
        <ele>473</ele>
        <time>2025-11-17T21:22:33Z</time>
      </trkpt>
      <trkpt lat="45.70701" lon="4.33012">
        <ele>473</ele>
        <time>2025-11-17T21:22:38Z</time>
      </trkpt>
      <trkpt lat="45.70695" lon="4.33018">
        <ele>471</ele>
        <time>2025-11-17T21:22:44Z</time>
      </trkpt>
      <trkpt lat="45.70693" lon="4.33027">
        <ele>469</ele>
        <time>2025-11-17T21:22:49Z</time>
      </trkpt>
      <trkpt lat="45.70694" lon="4.33037">
        <ele>469</ele>
        <time>2025-11-17T21:22:55Z</time>
      </trkpt>
      <trkpt lat="45.70701" lon="4.33075">
        <ele>466</ele>
        <time>2025-11-17T21:23:17Z</time>
      </trkpt>
      <trkpt lat="45.70705" lon="4.33113">
        <ele>466</ele>
        <time>2025-11-17T21:23:38Z</time>
      </trkpt>
      <trkpt lat="45.70709" lon="4.33132">
        <ele>466</ele>
        <time>2025-11-17T21:23:49Z</time>
      </trkpt>
      <trkpt lat="45.70715" lon="4.33156">
        <ele>467</ele>
        <time>2025-11-17T21:24:03Z</time>
      </trkpt>
      <trkpt lat="45.70715" lon="4.33166">
        <ele>466</ele>
        <time>2025-11-17T21:24:09Z</time>
      </trkpt>
      <trkpt lat="45.70714" lon="4.33178">
        <ele>466</ele>
        <time>2025-11-17T21:24:16Z</time>
      </trkpt>
      <trkpt lat="45.70711" lon="4.33187">
        <ele>465</ele>
        <time>2025-11-17T21:24:21Z</time>
      </trkpt>
      <trkpt lat="45.70709" lon="4.3319">
        <ele>465</ele>
        <time>2025-11-17T21:24:24Z</time>
      </trkpt>
      <trkpt lat="45.70705" lon="4.33191">
        <ele>464</ele>
        <time>2025-11-17T21:24:27Z</time>
      </trkpt>
      <trkpt lat="45.70701" lon="4.33188">
        <ele>464</ele>
        <time>2025-11-17T21:24:30Z</time>
      </trkpt>
      <trkpt lat="45.70696" lon="4.33172">
        <ele>463</ele>
        <time>2025-11-17T21:24:40Z</time>
      </trkpt>
      <trkpt lat="45.70693" lon="4.33165">
        <ele>462</ele>
        <time>2025-11-17T21:24:45Z</time>
      </trkpt>
      <trkpt lat="45.70669" lon="4.33124">
        <ele>458</ele>
        <time>2025-11-17T21:25:15Z</time>
      </trkpt>
      <trkpt lat="45.70651" lon="4.33105">
        <ele>457</ele>
        <time>2025-11-17T21:25:33Z</time>
      </trkpt>
      <trkpt lat="45.70644" lon="4.33096">
        <ele>457</ele>
        <time>2025-11-17T21:25:40Z</time>
      </trkpt>
      <trkpt lat="45.70637" lon="4.33085">
        <ele>457</ele>
        <time>2025-11-17T21:25:49Z</time>
      </trkpt>
      <trkpt lat="45.70632" lon="4.33083">
        <ele>457</ele>
        <time>2025-11-17T21:25:53Z</time>
      </trkpt>
      <trkpt lat="45.70632" lon="4.33083">
        <ele>457</ele>
        <time>2025-11-17T21:25:53Z</time>
      </trkpt>
      <trkpt lat="45.70627" lon="4.33078">
        <ele>458</ele>
        <time>2025-11-17T21:25:58Z</time>
      </trkpt>
      <trkpt lat="45.70617" lon="4.33075">
        <ele>458</ele>
        <time>2025-11-17T21:26:06Z</time>
      </trkpt>
      <trkpt lat="45.70599" lon="4.33059">
        <ele>458</ele>
        <time>2025-11-17T21:26:23Z</time>
      </trkpt>
      <trkpt lat="45.70594" lon="4.33052">
        <ele>458</ele>
        <time>2025-11-17T21:26:28Z</time>
      </trkpt>
      <trkpt lat="45.70599" lon="4.33059">
        <ele>458</ele>
        <time>2025-11-17T21:26:34Z</time>
      </trkpt>
      <trkpt lat="45.7059" lon="4.3305">
        <ele>458</ele>
        <time>2025-11-17T21:26:43Z</time>
      </trkpt>
      <trkpt lat="45.70565" lon="4.33037">
        <ele>458</ele>
        <time>2025-11-17T21:27:04Z</time>
      </trkpt>
      <trkpt lat="45.70535" lon="4.33025">
        <ele>458</ele>
        <time>2025-11-17T21:27:29Z</time>
      </trkpt>
      <trkpt lat="45.70515" lon="4.3302">
        <ele>458</ele>
        <time>2025-11-17T21:27:45Z</time>
      </trkpt>
      <trkpt lat="45.70482" lon="4.33016">
        <ele>461</ele>
        <time>2025-11-17T21:28:12Z</time>
      </trkpt>
      <trkpt lat="45.70471" lon="4.33009">
        <ele>462</ele>
        <time>2025-11-17T21:28:21Z</time>
      </trkpt>
      <trkpt lat="45.70458" lon="4.3299">
        <ele>462</ele>
        <time>2025-11-17T21:28:36Z</time>
      </trkpt>
      <trkpt lat="45.70435" lon="4.32943">
        <ele>464</ele>
        <time>2025-11-17T21:29:08Z</time>
      </trkpt>
      <trkpt lat="45.70415" lon="4.32891">
        <ele>464</ele>
        <time>2025-11-17T21:29:41Z</time>
      </trkpt>
      <trkpt lat="45.70397" lon="4.32866">
        <ele>462</ele>
        <time>2025-11-17T21:30:02Z</time>
      </trkpt>
      <trkpt lat="45.70385" lon="4.32858">
        <ele>463</ele>
        <time>2025-11-17T21:30:12Z</time>
      </trkpt>
      <trkpt lat="45.70373" lon="4.32858">
        <ele>464</ele>
        <time>2025-11-17T21:30:22Z</time>
      </trkpt>
      <trkpt lat="45.70365" lon="4.32864">
        <ele>465</ele>
        <time>2025-11-17T21:30:29Z</time>
      </trkpt>
      <trkpt lat="45.70356" lon="4.32879">
        <ele>466</ele>
        <time>2025-11-17T21:30:40Z</time>
      </trkpt>
      <trkpt lat="45.70344" lon="4.3289">
        <ele>467</ele>
        <time>2025-11-17T21:30:51Z</time>
      </trkpt>
      <trkpt lat="45.70333" lon="4.32908">
        <ele>468</ele>
        <time>2025-11-17T21:31:05Z</time>
      </trkpt>
      <trkpt lat="45.70304" lon="4.32939">
        <ele>476</ele>
        <time>2025-11-17T21:31:34Z</time>
      </trkpt>
      <trkpt lat="45.70281" lon="4.32939">
        <ele>480</ele>
        <time>2025-11-17T21:31:52Z</time>
      </trkpt>
      <trkpt lat="45.7026" lon="4.32946">
        <ele>483</ele>
        <time>2025-11-17T21:32:10Z</time>
      </trkpt>
      <trkpt lat="45.70198" lon="4.32977">
        <ele>491</ele>
        <time>2025-11-17T21:33:02Z</time>
      </trkpt>
      <trkpt lat="45.70188" lon="4.32978">
        <ele>493</ele>
        <time>2025-11-17T21:33:10Z</time>
      </trkpt>
      <trkpt lat="45.70171" lon="4.32975">
        <ele>495</ele>
        <time>2025-11-17T21:33:24Z</time>
      </trkpt>
      <trkpt lat="45.70161" lon="4.32967">
        <ele>496</ele>
        <time>2025-11-17T21:33:33Z</time>
      </trkpt>
      <trkpt lat="45.70146" lon="4.32939">
        <ele>499</ele>
        <time>2025-11-17T21:33:53Z</time>
      </trkpt>
      <trkpt lat="45.7013" lon="4.32898">
        <ele>503</ele>
        <time>2025-11-17T21:34:19Z</time>
      </trkpt>
      <trkpt lat="45.70115" lon="4.32857">
        <ele>508</ele>
        <time>2025-11-17T21:34:45Z</time>
      </trkpt>
      <trkpt lat="45.70091" lon="4.3282">
        <ele>513</ele>
        <time>2025-11-17T21:35:13Z</time>
      </trkpt>
      <trkpt lat="45.70074" lon="4.32798">
        <ele>515</ele>
        <time>2025-11-17T21:35:31Z</time>
      </trkpt>
      <trkpt lat="45.70035" lon="4.32778">
        <ele>520</ele>
        <time>2025-11-17T21:36:05Z</time>
      </trkpt>
      <trkpt lat="45.70023" lon="4.32785">
        <ele>522</ele>
        <time>2025-11-17T21:36:15Z</time>
      </trkpt>
      <trkpt lat="45.69999" lon="4.32794">
        <ele>527</ele>
        <time>2025-11-17T21:36:35Z</time>
      </trkpt>
      <trkpt lat="45.69984" lon="4.32798">
        <ele>527</ele>
        <time>2025-11-17T21:36:47Z</time>
      </trkpt>
      <trkpt lat="45.69983" lon="4.32798">
        <ele>527</ele>
        <time>2025-11-17T21:36:48Z</time>
      </trkpt>
      <trkpt lat="45.69984" lon="4.32798">
        <ele>527</ele>
        <time>2025-11-17T21:36:49Z</time>
      </trkpt>
      <trkpt lat="45.69982" lon="4.32772">
        <ele>526</ele>
        <time>2025-11-17T21:37:03Z</time>
      </trkpt>
      <trkpt lat="45.69983" lon="4.32747">
        <ele>524</ele>
        <time>2025-11-17T21:37:17Z</time>
      </trkpt>
      <trkpt lat="45.69989" lon="4.32721">
        <ele>521</ele>
        <time>2025-11-17T21:37:33Z</time>
      </trkpt>
      <trkpt lat="45.69987" lon="4.32719">
        <ele>521</ele>
        <time>2025-11-17T21:37:35Z</time>
      </trkpt>
      <trkpt lat="45.69964" lon="4.32691">
        <ele>518</ele>
        <time>2025-11-17T21:37:59Z</time>
      </trkpt>
      <trkpt lat="45.69952" lon="4.32692">
        <ele>518</ele>
        <time>2025-11-17T21:38:08Z</time>
      </trkpt>
      <trkpt lat="45.69926" lon="4.32695">
        <ele>518</ele>
        <time>2025-11-17T21:38:29Z</time>
      </trkpt>
      <trkpt lat="45.69901" lon="4.327">
        <ele>517</ele>
        <time>2025-11-17T21:38:49Z</time>
      </trkpt>
      <trkpt lat="45.69871" lon="4.32701">
        <ele>515</ele>
        <time>2025-11-17T21:39:14Z</time>
      </trkpt>
      <trkpt lat="45.6981" lon="4.32713">
        <ele>514</ele>
        <time>2025-11-17T21:40:03Z</time>
      </trkpt>
      <trkpt lat="45.69777" lon="4.32724">
        <ele>516</ele>
        <time>2025-11-17T21:40:30Z</time>
      </trkpt>
      <trkpt lat="45.69732" lon="4.32744">
        <ele>519</ele>
        <time>2025-11-17T21:41:08Z</time>
      </trkpt>
      <trkpt lat="45.69724" lon="4.32746">
        <ele>519</ele>
        <time>2025-11-17T21:41:14Z</time>
      </trkpt>
      <trkpt lat="45.69691" lon="4.32732">
        <ele>519</ele>
        <time>2025-11-17T21:41:42Z</time>
      </trkpt>
      <trkpt lat="45.69647" lon="4.32717">
        <ele>518</ele>
        <time>2025-11-17T21:42:18Z</time>
      </trkpt>
      <trkpt lat="45.69631" lon="4.32699">
        <ele>517</ele>
        <time>2025-11-17T21:42:34Z</time>
      </trkpt>
      <trkpt lat="45.69625" lon="4.32679">
        <ele>516</ele>
        <time>2025-11-17T21:42:46Z</time>
      </trkpt>
      <trkpt lat="45.69611" lon="4.32664">
        <ele>516</ele>
        <time>2025-11-17T21:43:00Z</time>
      </trkpt>
      <trkpt lat="45.69583" lon="4.32641">
        <ele>514</ele>
        <time>2025-11-17T21:43:26Z</time>
      </trkpt>
      <trkpt lat="45.69578" lon="4.32635">
        <ele>514</ele>
        <time>2025-11-17T21:43:31Z</time>
      </trkpt>
      <trkpt lat="45.69579" lon="4.32641">
        <ele>514</ele>
        <time>2025-11-17T21:43:35Z</time>
      </trkpt>
      <trkpt lat="45.69578" lon="4.32635">
        <ele>514</ele>
        <time>2025-11-17T21:43:38Z</time>
      </trkpt>
      <trkpt lat="45.69574" lon="4.3261">
        <ele>512</ele>
        <time>2025-11-17T21:43:53Z</time>
      </trkpt>
      <trkpt lat="45.6957" lon="4.3259">
        <ele>511</ele>
        <time>2025-11-17T21:44:04Z</time>
      </trkpt>
      <trkpt lat="45.69564" lon="4.32575">
        <ele>511</ele>
        <time>2025-11-17T21:44:14Z</time>
      </trkpt>
      <trkpt lat="45.6956" lon="4.32568">
        <ele>511</ele>
        <time>2025-11-17T21:44:19Z</time>
      </trkpt>
      <trkpt lat="45.69547" lon="4.32552">
        <ele>511</ele>
        <time>2025-11-17T21:44:33Z</time>
      </trkpt>
      <trkpt lat="45.6954" lon="4.32537">
        <ele>511</ele>
        <time>2025-11-17T21:44:43Z</time>
      </trkpt>
      <trkpt lat="45.69514" lon="4.32475">
        <ele>512</ele>
        <time>2025-11-17T21:45:23Z</time>
      </trkpt>
      <trkpt lat="45.69511" lon="4.3247">
        <ele>512</ele>
        <time>2025-11-17T21:45:27Z</time>
      </trkpt>
      <trkpt lat="45.6951" lon="4.32398">
        <ele>514</ele>
        <time>2025-11-17T21:46:07Z</time>
      </trkpt>
      <trkpt lat="45.69532" lon="4.32225">
        <ele>516</ele>
        <time>2025-11-17T21:47:46Z</time>
      </trkpt>
      <trkpt lat="45.69549" lon="4.32136">
        <ele>516</ele>
        <time>2025-11-17T21:48:37Z</time>
      </trkpt>
      <trkpt lat="45.69562" lon="4.32095">
        <ele>515</ele>
        <time>2025-11-17T21:49:02Z</time>
      </trkpt>
      <trkpt lat="45.69564" lon="4.3209">
        <ele>515</ele>
        <time>2025-11-17T21:49:06Z</time>
      </trkpt>
      <trkpt lat="45.69581" lon="4.32015">
        <ele>511</ele>
        <time>2025-11-17T21:49:50Z</time>
      </trkpt>
      <trkpt lat="45.69571" lon="4.31959">
        <ele>508</ele>
        <time>2025-11-17T21:50:22Z</time>
      </trkpt>
      <trkpt lat="45.69552" lon="4.31866">
        <ele>506</ele>
        <time>2025-11-17T21:51:16Z</time>
      </trkpt>
      <trkpt lat="45.69551" lon="4.3185">
        <ele>505</ele>
        <time>2025-11-17T21:51:25Z</time>
      </trkpt>
      <trkpt lat="45.69557" lon="4.31819">
        <ele>504</ele>
        <time>2025-11-17T21:51:43Z</time>
      </trkpt>
      <trkpt lat="45.6956" lon="4.31796">
        <ele>503</ele>
        <time>2025-11-17T21:51:56Z</time>
      </trkpt>
      <trkpt lat="45.6956" lon="4.31757">
        <ele>501</ele>
        <time>2025-11-17T21:52:18Z</time>
      </trkpt>
      <trkpt lat="45.69564" lon="4.31652">
        <ele>492</ele>
        <time>2025-11-17T21:53:17Z</time>
      </trkpt>
      <trkpt lat="45.69575" lon="4.31592">
        <ele>488</ele>
        <time>2025-11-17T21:53:52Z</time>
      </trkpt>
      <trkpt lat="45.69602" lon="4.31514">
        <ele>482</ele>
        <time>2025-11-17T21:54:40Z</time>
      </trkpt>
      <trkpt lat="45.69603" lon="4.31514">
        <ele>482</ele>
        <time>2025-11-17T21:54:41Z</time>
      </trkpt>
      <trkpt lat="45.69602" lon="4.31514">
        <ele>482</ele>
        <time>2025-11-17T21:54:42Z</time>
      </trkpt>
      <trkpt lat="45.69591" lon="4.3151">
        <ele>482</ele>
        <time>2025-11-17T21:54:51Z</time>
      </trkpt>
      <trkpt lat="45.69558" lon="4.315">
        <ele>483</ele>
        <time>2025-11-17T21:55:18Z</time>
      </trkpt>
      <trkpt lat="45.69553" lon="4.31495">
        <ele>483</ele>
        <time>2025-11-17T21:55:23Z</time>
      </trkpt>
      <trkpt lat="45.69544" lon="4.31482">
        <ele>483</ele>
        <time>2025-11-17T21:55:33Z</time>
      </trkpt>
      <trkpt lat="45.69491" lon="4.31396">
        <ele>479</ele>
        <time>2025-11-17T21:56:37Z</time>
      </trkpt>
      <trkpt lat="45.69454" lon="4.31363">
        <ele>476</ele>
        <time>2025-11-17T21:57:12Z</time>
      </trkpt>
      <trkpt lat="45.69367" lon="4.31296">
        <ele>481</ele>
        <time>2025-11-17T21:58:31Z</time>
      </trkpt>
      <trkpt lat="45.69366" lon="4.31291">
        <ele>481</ele>
        <time>2025-11-17T21:58:34Z</time>
      </trkpt>
      <trkpt lat="45.69365" lon="4.31289">
        <ele>482</ele>
        <time>2025-11-17T21:58:36Z</time>
      </trkpt>
      <trkpt lat="45.6937" lon="4.31271">
        <ele>482</ele>
        <time>2025-11-17T21:58:46Z</time>
      </trkpt>
      <trkpt lat="45.69391" lon="4.31227">
        <ele>480</ele>
        <time>2025-11-17T21:59:16Z</time>
      </trkpt>
      <trkpt lat="45.69404" lon="4.31192">
        <ele>480</ele>
        <time>2025-11-17T21:59:38Z</time>
      </trkpt>
      <trkpt lat="45.69403" lon="4.31172">
        <ele>482</ele>
        <time>2025-11-17T21:59:50Z</time>
      </trkpt>
      <trkpt lat="45.694" lon="4.31161">
        <ele>483</ele>
        <time>2025-11-17T21:59:56Z</time>
      </trkpt>
      <trkpt lat="45.69389" lon="4.31158">
        <ele>486</ele>
        <time>2025-11-17T22:00:05Z</time>
      </trkpt>
      <trkpt lat="45.69382" lon="4.31154">
        <ele>488</ele>
        <time>2025-11-17T22:00:11Z</time>
      </trkpt>
      <trkpt lat="45.69373" lon="4.31144">
        <ele>490</ele>
        <time>2025-11-17T22:00:20Z</time>
      </trkpt>
      <trkpt lat="45.69369" lon="4.31127">
        <ele>492</ele>
        <time>2025-11-17T22:00:30Z</time>
      </trkpt>
      <trkpt lat="45.69366" lon="4.31075">
        <ele>494</ele>
        <time>2025-11-17T22:01:00Z</time>
      </trkpt>
      <trkpt lat="45.69362" lon="4.31047">
        <ele>495</ele>
        <time>2025-11-17T22:01:15Z</time>
      </trkpt>
      <trkpt lat="45.69353" lon="4.31023">
        <ele>497</ele>
        <time>2025-11-17T22:01:31Z</time>
      </trkpt>
      <trkpt lat="45.69338" lon="4.31003">
        <ele>499</ele>
        <time>2025-11-17T22:01:47Z</time>
      </trkpt>
      <trkpt lat="45.69324" lon="4.30981">
        <ele>499</ele>
        <time>2025-11-17T22:02:04Z</time>
      </trkpt>
      <trkpt lat="45.69308" lon="4.30965">
        <ele>499</ele>
        <time>2025-11-17T22:02:19Z</time>
      </trkpt>
      <trkpt lat="45.69283" lon="4.30951">
        <ele>500</ele>
        <time>2025-11-17T22:02:41Z</time>
      </trkpt>
      <trkpt lat="45.69264" lon="4.30937">
        <ele>501</ele>
        <time>2025-11-17T22:02:58Z</time>
      </trkpt>
      <trkpt lat="45.69217" lon="4.30889">
        <ele>498</ele>
        <time>2025-11-17T22:03:44Z</time>
      </trkpt>
      <trkpt lat="45.69212" lon="4.30885">
        <ele>498</ele>
        <time>2025-11-17T22:03:49Z</time>
      </trkpt>
      <trkpt lat="45.69208" lon="4.30936">
        <ele>503</ele>
        <time>2025-11-17T22:04:18Z</time>
      </trkpt>
      <trkpt lat="45.69202" lon="4.30963">
        <ele>506</ele>
        <time>2025-11-17T22:04:33Z</time>
      </trkpt>
      <trkpt lat="45.6918" lon="4.31026">
        <ele>513</ele>
        <time>2025-11-17T22:05:13Z</time>
      </trkpt>
      <trkpt lat="45.69144" lon="4.31102">
        <ele>517</ele>
        <time>2025-11-17T22:06:04Z</time>
      </trkpt>
      <trkpt lat="45.69135" lon="4.31129">
        <ele>519</ele>
        <time>2025-11-17T22:06:21Z</time>
      </trkpt>
      <trkpt lat="45.69111" lon="4.31186">
        <ele>524</ele>
        <time>2025-11-17T22:06:58Z</time>
      </trkpt>
      <trkpt lat="45.69096" lon="4.31234">
        <ele>528</ele>
        <time>2025-11-17T22:07:27Z</time>
      </trkpt>
      <trkpt lat="45.69092" lon="4.3125">
        <ele>529</ele>
        <time>2025-11-17T22:07:37Z</time>
      </trkpt>
      <trkpt lat="45.69092" lon="4.31265">
        <ele>529</ele>
        <time>2025-11-17T22:07:45Z</time>
      </trkpt>
      <trkpt lat="45.69095" lon="4.31282">
        <ele>529</ele>
        <time>2025-11-17T22:07:55Z</time>
      </trkpt>
      <trkpt lat="45.69103" lon="4.31307">
        <ele>528</ele>
        <time>2025-11-17T22:08:11Z</time>
      </trkpt>
      <trkpt lat="45.69154" lon="4.31458">
        <ele>506</ele>
        <time>2025-11-17T22:09:44Z</time>
      </trkpt>
      <trkpt lat="45.69174" lon="4.31523">
        <ele>498</ele>
        <time>2025-11-17T22:10:24Z</time>
      </trkpt>
      <trkpt lat="45.69178" lon="4.31552">
        <ele>496</ele>
        <time>2025-11-17T22:10:41Z</time>
      </trkpt>
      <trkpt lat="45.69177" lon="4.31557">
        <ele>496</ele>
        <time>2025-11-17T22:10:44Z</time>
      </trkpt>
      <trkpt lat="45.69065" lon="4.3165">
        <ele>502</ele>
        <time>2025-11-17T22:12:27Z</time>
      </trkpt>
      <trkpt lat="45.6906" lon="4.31658">
        <ele>501</ele>
        <time>2025-11-17T22:12:33Z</time>
      </trkpt>
      <trkpt lat="45.6906" lon="4.31665">
        <ele>501</ele>
        <time>2025-11-17T22:12:37Z</time>
      </trkpt>
      <trkpt lat="45.69062" lon="4.31672">
        <ele>501</ele>
        <time>2025-11-17T22:12:41Z</time>
      </trkpt>
      <trkpt lat="45.69062" lon="4.31678">
        <ele>501</ele>
        <time>2025-11-17T22:12:45Z</time>
      </trkpt>
      <trkpt lat="45.69058" lon="4.31682">
        <ele>501</ele>
        <time>2025-11-17T22:12:49Z</time>
      </trkpt>
      <trkpt lat="45.69021" lon="4.31691">
        <ele>503</ele>
        <time>2025-11-17T22:13:19Z</time>
      </trkpt>
      <trkpt lat="45.68996" lon="4.31703">
        <ele>503</ele>
        <time>2025-11-17T22:13:40Z</time>
      </trkpt>
      <trkpt lat="45.68976" lon="4.3172">
        <ele>504</ele>
        <time>2025-11-17T22:13:58Z</time>
      </trkpt>
      <trkpt lat="45.68963" lon="4.31733">
        <ele>504</ele>
        <time>2025-11-17T22:14:11Z</time>
      </trkpt>
      <trkpt lat="45.68965" lon="4.31737">
        <ele>504</ele>
        <time>2025-11-17T22:14:14Z</time>
      </trkpt>
      <trkpt lat="45.68945" lon="4.31734">
        <ele>504</ele>
        <time>2025-11-17T22:14:30Z</time>
      </trkpt>
      <trkpt lat="45.68938" lon="4.31733">
        <ele>504</ele>
        <time>2025-11-17T22:14:36Z</time>
      </trkpt>
      <trkpt lat="45.68904" lon="4.31754">
        <ele>505</ele>
        <time>2025-11-17T22:15:05Z</time>
      </trkpt>
      <trkpt lat="45.68873" lon="4.31778">
        <ele>507</ele>
        <time>2025-11-17T22:15:33Z</time>
      </trkpt>
      <trkpt lat="45.6883" lon="4.31803">
        <ele>510</ele>
        <time>2025-11-17T22:16:11Z</time>
      </trkpt>
      <trkpt lat="45.68799" lon="4.31836">
        <ele>513</ele>
        <time>2025-11-17T22:16:42Z</time>
      </trkpt>
      <trkpt lat="45.68774" lon="4.31868">
        <ele>514</ele>
        <time>2025-11-17T22:17:08Z</time>
      </trkpt>
      <trkpt lat="45.68767" lon="4.3187">
        <ele>514</ele>
        <time>2025-11-17T22:17:14Z</time>
      </trkpt>
      <trkpt lat="45.68763" lon="4.31869">
        <ele>513</ele>
        <time>2025-11-17T22:17:17Z</time>
      </trkpt>
      <trkpt lat="45.68697" lon="4.31795">
        <ele>512</ele>
        <time>2025-11-17T22:18:24Z</time>
      </trkpt>
      <trkpt lat="45.68697" lon="4.31779">
        <ele>512</ele>
        <time>2025-11-17T22:18:33Z</time>
      </trkpt>
      <trkpt lat="45.6869" lon="4.31772">
        <ele>512</ele>
        <time>2025-11-17T22:18:40Z</time>
      </trkpt>
      <trkpt lat="45.68643" lon="4.3174">
        <ele>514</ele>
        <time>2025-11-17T22:19:22Z</time>
      </trkpt>
      <trkpt lat="45.6864" lon="4.31742">
        <ele>514</ele>
        <time>2025-11-17T22:19:25Z</time>
      </trkpt>
      <trkpt lat="45.68606" lon="4.31811">
        <ele>513</ele>
        <time>2025-11-17T22:20:12Z</time>
      </trkpt>
      <trkpt lat="45.68603" lon="4.31812">
        <ele>513</ele>
        <time>2025-11-17T22:20:14Z</time>
      </trkpt>
      <trkpt lat="45.68599" lon="4.31809">
        <ele>513</ele>
        <time>2025-11-17T22:20:18Z</time>
      </trkpt>
      <trkpt lat="45.68593" lon="4.31801">
        <ele>514</ele>
        <time>2025-11-17T22:20:24Z</time>
      </trkpt>
      <trkpt lat="45.68589" lon="4.31797">
        <ele>514</ele>
        <time>2025-11-17T22:20:28Z</time>
      </trkpt>
      <trkpt lat="45.68585" lon="4.31799">
        <ele>514</ele>
        <time>2025-11-17T22:20:32Z</time>
      </trkpt>
      <trkpt lat="45.68568" lon="4.31821">
        <ele>514</ele>
        <time>2025-11-17T22:20:50Z</time>
      </trkpt>
      <trkpt lat="45.68543" lon="4.31844">
        <ele>515</ele>
        <time>2025-11-17T22:21:14Z</time>
      </trkpt>
      <trkpt lat="45.68525" lon="4.31866">
        <ele>513</ele>
        <time>2025-11-17T22:21:33Z</time>
      </trkpt>
      <trkpt lat="45.68517" lon="4.31883">
        <ele>511</ele>
        <time>2025-11-17T22:21:44Z</time>
      </trkpt>
      <trkpt lat="45.68503" lon="4.31922">
        <ele>506</ele>
        <time>2025-11-17T22:22:09Z</time>
      </trkpt>
      <trkpt lat="45.68478" lon="4.31982">
        <ele>499</ele>
        <time>2025-11-17T22:22:48Z</time>
      </trkpt>
      <trkpt lat="45.68471" lon="4.31985">
        <ele>499</ele>
        <time>2025-11-17T22:22:54Z</time>
      </trkpt>
      <trkpt lat="45.68454" lon="4.31989">
        <ele>500</ele>
        <time>2025-11-17T22:23:08Z</time>
      </trkpt>
      <trkpt lat="45.68445" lon="4.31991">
        <ele>501</ele>
        <time>2025-11-17T22:23:15Z</time>
      </trkpt>
      <trkpt lat="45.68432" lon="4.31992">
        <ele>502</ele>
        <time>2025-11-17T22:23:25Z</time>
      </trkpt>
      <trkpt lat="45.6842" lon="4.3199">
        <ele>504</ele>
        <time>2025-11-17T22:23:35Z</time>
      </trkpt>
      <trkpt lat="45.68355" lon="4.31975">
        <ele>507</ele>
        <time>2025-11-17T22:24:28Z</time>
      </trkpt>
      <trkpt lat="45.68344" lon="4.31969">
        <ele>507</ele>
        <time>2025-11-17T22:24:37Z</time>
      </trkpt>
      <trkpt lat="45.68333" lon="4.31958">
        <ele>508</ele>
        <time>2025-11-17T22:24:48Z</time>
      </trkpt>
      <trkpt lat="45.68325" lon="4.31944">
        <ele>508</ele>
        <time>2025-11-17T22:24:58Z</time>
      </trkpt>
      <trkpt lat="45.68299" lon="4.31884">
        <ele>508</ele>
        <time>2025-11-17T22:25:37Z</time>
      </trkpt>
      <trkpt lat="45.68282" lon="4.31866">
        <ele>507</ele>
        <time>2025-11-17T22:25:54Z</time>
      </trkpt>
      <trkpt lat="45.68275" lon="4.31861">
        <ele>506</ele>
        <time>2025-11-17T22:26:01Z</time>
      </trkpt>
      <trkpt lat="45.68256" lon="4.31841">
        <ele>505</ele>
        <time>2025-11-17T22:26:20Z</time>
      </trkpt>
      <trkpt lat="45.68254" lon="4.31837">
        <ele>504</ele>
        <time>2025-11-17T22:26:22Z</time>
      </trkpt>
      <trkpt lat="45.68249" lon="4.3182">
        <ele>503</ele>
        <time>2025-11-17T22:26:33Z</time>
      </trkpt>
      <trkpt lat="45.68247" lon="4.31809">
        <ele>502</ele>
        <time>2025-11-17T22:26:39Z</time>
      </trkpt>
      <trkpt lat="45.68248" lon="4.31797">
        <ele>501</ele>
        <time>2025-11-17T22:26:46Z</time>
      </trkpt>
      <trkpt lat="45.68235" lon="4.31755">
        <ele>497</ele>
        <time>2025-11-17T22:27:11Z</time>
      </trkpt>
      <trkpt lat="45.68223" lon="4.31712">
        <ele>492</ele>
        <time>2025-11-17T22:27:37Z</time>
      </trkpt>
      <trkpt lat="45.68205" lon="4.31651">
        <ele>486</ele>
        <time>2025-11-17T22:28:14Z</time>
      </trkpt>
      <trkpt lat="45.682" lon="4.31624">
        <ele>484</ele>
        <time>2025-11-17T22:28:30Z</time>
      </trkpt>
      <trkpt lat="45.68192" lon="4.31551">
        <ele>479</ele>
        <time>2025-11-17T22:29:11Z</time>
      </trkpt>
      <trkpt lat="45.68182" lon="4.31481">
        <ele>476</ele>
        <time>2025-11-17T22:29:51Z</time>
      </trkpt>
      <trkpt lat="45.6817" lon="4.31421">
        <ele>475</ele>
        <time>2025-11-17T22:30:26Z</time>
      </trkpt>
      <trkpt lat="45.68168" lon="4.31403">
        <ele>474</ele>
        <time>2025-11-17T22:30:36Z</time>
      </trkpt>
      <trkpt lat="45.68154" lon="4.31382">
        <ele>473</ele>
        <time>2025-11-17T22:30:53Z</time>
      </trkpt>
      <trkpt lat="45.68127" lon="4.31336">
        <ele>471</ele>
        <time>2025-11-17T22:31:26Z</time>
      </trkpt>
      <trkpt lat="45.68115" lon="4.3131">
        <ele>469</ele>
        <time>2025-11-17T22:31:44Z</time>
      </trkpt>
      <trkpt lat="45.68085" lon="4.31235">
        <ele>467</ele>
        <time>2025-11-17T22:32:32Z</time>
      </trkpt>
      <trkpt lat="45.68076" lon="4.31215">
        <ele>467</ele>
        <time>2025-11-17T22:32:45Z</time>
      </trkpt>
      <trkpt lat="45.6806" lon="4.31195">
        <ele>466</ele>
        <time>2025-11-17T22:33:02Z</time>
      </trkpt>
      <trkpt lat="45.68017" lon="4.31143">
        <ele>467</ele>
        <time>2025-11-17T22:33:47Z</time>
      </trkpt>
      <trkpt lat="45.68011" lon="4.31134">
        <ele>467</ele>
        <time>2025-11-17T22:33:54Z</time>
      </trkpt>
      <trkpt lat="45.68025" lon="4.31137">
        <ele>467</ele>
        <time>2025-11-17T22:34:06Z</time>
      </trkpt>
      <trkpt lat="45.68052" lon="4.31138">
        <ele>466</ele>
        <time>2025-11-17T22:34:27Z</time>
      </trkpt>
      <trkpt lat="45.68061" lon="4.31139">
        <ele>465</ele>
        <time>2025-11-17T22:34:35Z</time>
      </trkpt>
    </trkseg>
  </trk>
</gpx>